QTR1377 OTHH-FAOR
Flight info
| Callsign | QTR1377 |
|---|---|
| Flight time | 7h 55m |
| Altitude | 28000 |
| Route | DATRI L564 BAT/N0491F330 DCT KUTNA DCT MIGMA DCT GOBRO L425 ITUVO/N0489F340 B400 VEDET UL437 MOGDU/N0484F360 UL437 DV UM310 AXIBO/N0479F380 UM310 VBR UM307 EPSEK UZ33 NESAG UZ7 OKPIT OKPIT1D |
| Aircraft | B77L/H-SDE1E2E3FGHIJ2J3J4J5M1RWXY/LB1D1 |
Departure
| Time | 2026-05-06 02:33 |
|---|---|
| Airport | Hamad International Airport (OTHH) |
Arrival
| Time | 2026-05-06 10:29 |
|---|---|
| Airport | O.R. Tambo International Airport (FAOR) |
| Time | Latitude | Longitude | Altitude | Speed | Heading |
|---|---|---|---|---|---|
| 2026-05-06 01:54 | 25.26153 | 51.61129 | 34 ft | 0 kts | 158° |
| 2026-05-06 02:23 | 25.26158 | 51.61127 | 34 ft | 4 kts | 158° |
| 2026-05-06 02:24 | 25.26183 | 51.61116 | 33 ft | 4 kts | 160° |
| 2026-05-06 02:24 | 25.26207 | 51.61106 | 30 ft | 2 kts | 146° |
| 2026-05-06 02:24 | 25.26226 | 51.61092 | 34 ft | 4 kts | 149° |
| 2026-05-06 02:24 | 25.26250 | 51.61080 | 32 ft | 4 kts | 174° |
| 2026-05-06 02:25 | 25.26267 | 51.61082 | 31 ft | 0 kts | 212° |
| 2026-05-06 02:27 | 25.26261 | 51.61078 | 31 ft | 3 kts | 212° |
| 2026-05-06 02:27 | 25.26245 | 51.61067 | 33 ft | 3 kts | 212° |
| 2026-05-06 02:27 | 25.26232 | 51.61054 | 34 ft | 2 kts | 227° |
| 2026-05-06 02:28 | 25.26214 | 51.61014 | 34 ft | 12 kts | 247° |
| 2026-05-06 02:28 | 25.26179 | 51.60920 | 34 ft | 13 kts | 248° |
| 2026-05-06 02:28 | 25.26145 | 51.60826 | 32 ft | 13 kts | 249° |
| 2026-05-06 02:28 | 25.26111 | 51.60731 | 34 ft | 13 kts | 249° |
| 2026-05-06 02:29 | 25.26071 | 51.60641 | 34 ft | 13 kts | 221° |
| 2026-05-06 02:29 | 25.25983 | 51.60653 | 34 ft | 13 kts | 154° |
| 2026-05-06 02:29 | 25.25898 | 51.60694 | 34 ft | 13 kts | 158° |
| 2026-05-06 02:29 | 25.25812 | 51.60732 | 34 ft | 13 kts | 158° |
| 2026-05-06 02:30 | 25.25725 | 51.60770 | 34 ft | 13 kts | 158° |
| 2026-05-06 02:30 | 25.25640 | 51.60773 | 34 ft | 13 kts | 220° |
| 2026-05-06 02:30 | 25.25609 | 51.60705 | 33 ft | 5 kts | 250° |
| 2026-05-06 02:30 | 25.25602 | 51.60684 | 33 ft | 3 kts | 250° |
| 2026-05-06 02:31 | 25.25593 | 51.60658 | 32 ft | 4 kts | 250° |
| 2026-05-06 02:31 | 25.25581 | 51.60619 | 31 ft | 6 kts | 250° |
| 2026-05-06 02:31 | 25.25573 | 51.60564 | 30 ft | 8 kts | 276° |
| 2026-05-06 02:31 | 25.25603 | 51.60516 | 29 ft | 8 kts | 324° |
| 2026-05-06 02:32 | 25.25621 | 51.60507 | 29 ft | 0 kts | 337° |
| 2026-05-06 02:32 | 25.25625 | 51.60505 | 29 ft | 2 kts | 337° |
| 2026-05-06 02:32 | 25.25786 | 51.60433 | 32 ft | 58 kts | 338° |
| 2026-05-06 02:32 | 25.26372 | 51.60175 | 31 ft | 121 kts | 338° |
| 2026-05-06 02:33 | 25.27322 | 51.59756 | 30 ft | 171 kts | 338° |
| 2026-05-06 02:33 | 25.28111 | 51.59415 | 50 ft | 194 kts | 338° |
| 2026-05-06 02:33 | 25.31108 | 51.58037 | 1035 ft | 205 kts | 340° |
| 2026-05-06 02:34 | 25.32480 | 51.57450 | 1343 ft | 221 kts | 341° |
| 2026-05-06 02:34 | 25.33982 | 51.56805 | 1525 ft | 243 kts | 340° |
| 2026-05-06 02:34 | 25.35638 | 51.56083 | 1720 ft | 264 kts | 340° |
| 2026-05-06 02:34 | 25.37345 | 51.55328 | 2244 ft | 271 kts | 340° |
| 2026-05-06 02:35 | 25.39104 | 51.54546 | 2853 ft | 274 kts | 339° |
| 2026-05-06 02:35 | 25.40880 | 51.53754 | 3516 ft | 276 kts | 339° |
| 2026-05-06 02:35 | 25.42662 | 51.52963 | 4208 ft | 276 kts | 340° |
| 2026-05-06 02:35 | 25.44444 | 51.52175 | 4896 ft | 276 kts | 339° |
| 2026-05-06 02:36 | 25.46220 | 51.51367 | 5540 ft | 275 kts | 334° |
| 2026-05-06 02:36 | 25.47695 | 51.50023 | 6018 ft | 281 kts | 304° |
| 2026-05-06 02:36 | 25.48371 | 51.48004 | 6638 ft | 283 kts | 277° |
| 2026-05-06 02:36 | 25.48370 | 51.45826 | 7196 ft | 285 kts | 268° |
| 2026-05-06 02:37 | 25.48266 | 51.43619 | 7761 ft | 288 kts | 268° |
| 2026-05-06 02:37 | 25.48156 | 51.41402 | 8449 ft | 289 kts | 268° |
| 2026-05-06 02:37 | 25.48045 | 51.39175 | 9097 ft | 290 kts | 269° |
| 2026-05-06 02:37 | 25.47939 | 51.36939 | 9726 ft | 292 kts | 269° |
| 2026-05-06 02:38 | 25.47838 | 51.34703 | 10163 ft | 301 kts | 269° |
| 2026-05-06 02:38 | 25.47731 | 51.32282 | 10320 ft | 321 kts | 268° |
| 2026-05-06 02:38 | 25.47498 | 51.29799 | 10415 ft | 338 kts | 256° |
| 2026-05-06 02:38 | 25.46382 | 51.27433 | 10553 ft | 360 kts | 230° |
| 2026-05-06 02:39 | 25.44342 | 51.25723 | 10758 ft | 380 kts | 204° |
| 2026-05-06 02:39 | 25.41729 | 51.25125 | 11147 ft | 389 kts | 181° |
| 2026-05-06 02:39 | 25.39005 | 51.25233 | 11508 ft | 396 kts | 178° |
| 2026-05-06 02:39 | 25.36234 | 51.25346 | 12054 ft | 400 kts | 179° |
| 2026-05-06 02:40 | 25.33447 | 51.25414 | 12746 ft | 401 kts | 180° |
| 2026-05-06 02:40 | 25.30650 | 51.25457 | 13415 ft | 403 kts | 180° |
| 2026-05-06 02:40 | 25.27832 | 51.25505 | 13964 ft | 404 kts | 178° |
| 2026-05-06 02:40 | 25.25072 | 51.26066 | 14262 ft | 407 kts | 160° |
| 2026-05-06 02:41 | 25.22422 | 51.27274 | 14599 ft | 415 kts | 157° |
| 2026-05-06 02:41 | 25.19794 | 51.28637 | 15171 ft | 418 kts | 153° |
| 2026-05-06 02:41 | 25.17222 | 51.30148 | 15799 ft | 419 kts | 152° |
| 2026-05-06 02:41 | 25.14637 | 51.31660 | 16381 ft | 422 kts | 153° |
| 2026-05-06 02:42 | 25.12022 | 51.33168 | 16929 ft | 426 kts | 153° |
| 2026-05-06 02:42 | 25.09391 | 51.34694 | 17423 ft | 431 kts | 153° |
| 2026-05-06 02:42 | 25.06720 | 51.36248 | 17905 ft | 436 kts | 153° |
| 2026-05-06 02:42 | 25.04065 | 51.37793 | 18390 ft | 438 kts | 153° |
| 2026-05-06 02:43 | 25.01362 | 51.39366 | 18913 ft | 440 kts | 153° |
| 2026-05-06 02:43 | 24.98646 | 51.40945 | 19425 ft | 442 kts | 153° |
| 2026-05-06 02:43 | 24.95920 | 51.42528 | 19914 ft | 444 kts | 153° |
| 2026-05-06 02:43 | 24.93178 | 51.44119 | 20385 ft | 447 kts | 154° |
| 2026-05-06 02:44 | 24.90418 | 51.45718 | 20854 ft | 449 kts | 154° |
| 2026-05-06 02:44 | 24.87642 | 51.47327 | 21311 ft | 452 kts | 154° |
| 2026-05-06 02:44 | 24.84842 | 51.48950 | 21754 ft | 455 kts | 154° |
| 2026-05-06 02:44 | 24.82029 | 51.50578 | 22212 ft | 458 kts | 154° |
| 2026-05-06 02:45 | 24.79202 | 51.52215 | 22670 ft | 460 kts | 154° |
| 2026-05-06 02:45 | 24.76358 | 51.53859 | 23118 ft | 463 kts | 154° |
| 2026-05-06 02:45 | 24.73449 | 51.55354 | 23438 ft | 462 kts | 163° |
| 2026-05-06 02:45 | 24.70317 | 51.56092 | 23700 ft | 462 kts | 178° |
| 2026-05-06 02:46 | 24.67118 | 51.56052 | 24074 ft | 459 kts | 189° |
| 2026-05-06 02:46 | 24.64004 | 51.55361 | 24375 ft | 457 kts | 195° |
| 2026-05-06 02:46 | 24.60891 | 51.54557 | 24651 ft | 461 kts | 195° |
| 2026-05-06 02:46 | 24.57753 | 51.53769 | 25027 ft | 463 kts | 195° |
| 2026-05-06 02:47 | 24.54605 | 51.52999 | 25432 ft | 464 kts | 195° |
| 2026-05-06 02:47 | 24.51448 | 51.52242 | 25832 ft | 465 kts | 195° |
| 2026-05-06 02:47 | 24.48314 | 51.51498 | 26193 ft | 467 kts | 195° |
| 2026-05-06 02:47 | 24.45133 | 51.50747 | 26548 ft | 469 kts | 195° |
| 2026-05-06 02:48 | 24.41929 | 51.49992 | 26888 ft | 471 kts | 195° |
| 2026-05-06 02:48 | 24.38712 | 51.49233 | 27195 ft | 474 kts | 195° |
| 2026-05-06 02:48 | 24.35469 | 51.48468 | 27516 ft | 477 kts | 195° |
| 2026-05-06 02:48 | 24.32219 | 51.47702 | 27869 ft | 479 kts | 195° |
| 2026-05-06 02:49 | 24.28958 | 51.46933 | 28224 ft | 480 kts | 195° |
| 2026-05-06 02:49 | 24.25694 | 51.46164 | 28567 ft | 481 kts | 195° |
| 2026-05-06 02:49 | 24.22385 | 51.45492 | 28879 ft | 485 kts | 191° |
| 2026-05-06 02:49 | 24.19003 | 51.45137 | 29195 ft | 490 kts | 186° |
| 2026-05-06 02:50 | 24.15589 | 51.45142 | 29582 ft | 491 kts | 183° |
| 2026-05-06 02:50 | 24.12176 | 51.45200 | 30020 ft | 489 kts | 183° |
| 2026-05-06 02:50 | 24.08775 | 51.45252 | 30438 ft | 487 kts | 183° |
| 2026-05-06 02:50 | 24.05395 | 51.45292 | 30829 ft | 486 kts | 183° |
| 2026-05-06 02:51 | 24.02012 | 51.45323 | 31204 ft | 485 kts | 184° |
| 2026-05-06 02:51 | 23.98681 | 51.45346 | 31575 ft | 484 kts | 184° |
| 2026-05-06 02:51 | 23.95318 | 51.45367 | 31944 ft | 483 kts | 184° |
| 2026-05-06 02:51 | 23.91956 | 51.45386 | 32309 ft | 482 kts | 184° |
| 2026-05-06 02:52 | 23.88599 | 51.45404 | 32671 ft | 482 kts | 184° |
| 2026-05-06 02:52 | 23.85245 | 51.45423 | 33025 ft | 481 kts | 184° |
| 2026-05-06 02:52 | 23.81901 | 51.45443 | 33391 ft | 480 kts | 184° |
| 2026-05-06 02:52 | 23.78564 | 51.45463 | 33726 ft | 480 kts | 184° |
| 2026-05-06 02:53 | 23.75206 | 51.45482 | 33765 ft | 484 kts | 184° |
| 2026-05-06 02:53 | 23.68480 | 51.45523 | 33791 ft | 481 kts | 184° |
| 2026-05-06 02:54 | 23.61818 | 51.45566 | 33792 ft | 477 kts | 184° |
| 2026-05-06 02:54 | 23.55185 | 51.45606 | 33811 ft | 476 kts | 184° |
| 2026-05-06 02:55 | 23.48555 | 51.45645 | 33803 ft | 476 kts | 184° |
| 2026-05-06 02:55 | 23.41932 | 51.45684 | 33796 ft | 477 kts | 184° |
| 2026-05-06 02:56 | 23.35326 | 51.45724 | 33803 ft | 477 kts | 184° |
| 2026-05-06 02:56 | 23.28678 | 51.45764 | 33806 ft | 478 kts | 184° |
| 2026-05-06 02:57 | 23.21999 | 51.45806 | 33799 ft | 479 kts | 183° |
| 2026-05-06 02:57 | 23.15315 | 51.45901 | 33800 ft | 480 kts | 183° |
| 2026-05-06 02:58 | 23.08665 | 51.46017 | 33799 ft | 481 kts | 182° |
| 2026-05-06 02:58 | 23.01964 | 51.46126 | 33806 ft | 482 kts | 182° |
| 2026-05-06 02:59 | 22.95259 | 51.46230 | 33809 ft | 482 kts | 182° |
| 2026-05-06 02:59 | 22.88549 | 51.46389 | 33798 ft | 483 kts | 178° |
| 2026-05-06 02:59 | 22.85223 | 51.47050 | 33804 ft | 488 kts | 167° |
| 2026-05-06 03:00 | 22.82021 | 51.48304 | 33817 ft | 493 kts | 159° |
| 2026-05-06 03:00 | 22.76145 | 51.52219 | 33824 ft | 498 kts | 149° |
| 2026-05-06 03:01 | 22.70461 | 51.56539 | 33807 ft | 499 kts | 148° |
| 2026-05-06 03:01 | 22.64776 | 51.60810 | 33804 ft | 500 kts | 149° |
| 2026-05-06 03:02 | 22.59029 | 51.65066 | 33807 ft | 500 kts | 149° |
| 2026-05-06 03:02 | 22.53271 | 51.69303 | 33805 ft | 500 kts | 149° |
| 2026-05-06 03:03 | 22.47510 | 51.73537 | 33799 ft | 501 kts | 149° |
| 2026-05-06 03:03 | 22.41752 | 51.77767 | 33800 ft | 501 kts | 149° |
| 2026-05-06 03:04 | 22.35986 | 51.82001 | 33809 ft | 501 kts | 149° |
| 2026-05-06 03:04 | 22.31187 | 51.85521 | 33814 ft | 501 kts | 149° |
| 2026-05-06 03:05 | 22.25416 | 51.89751 | 33810 ft | 501 kts | 149° |
| 2026-05-06 03:05 | 22.19648 | 51.93974 | 33812 ft | 501 kts | 149° |
| 2026-05-06 03:06 | 22.12947 | 51.98875 | 33807 ft | 501 kts | 149° |
| 2026-05-06 03:06 | 22.08115 | 52.02406 | 33809 ft | 500 kts | 149° |
| 2026-05-06 03:07 | 22.02343 | 52.06618 | 33800 ft | 500 kts | 149° |
| 2026-05-06 03:07 | 21.96624 | 52.10789 | 33805 ft | 499 kts | 149° |
| 2026-05-06 03:08 | 21.90867 | 52.14983 | 33812 ft | 499 kts | 149° |
| 2026-05-06 03:08 | 21.85114 | 52.19170 | 33809 ft | 499 kts | 149° |
| 2026-05-06 03:09 | 21.79357 | 52.23355 | 33801 ft | 499 kts | 149° |
| 2026-05-06 03:09 | 21.73610 | 52.27529 | 33812 ft | 499 kts | 149° |
| 2026-05-06 03:10 | 21.67852 | 52.31707 | 33811 ft | 499 kts | 149° |
| 2026-05-06 03:10 | 21.62118 | 52.35864 | 33808 ft | 500 kts | 149° |
| 2026-05-06 03:11 | 21.56350 | 52.40041 | 33796 ft | 500 kts | 149° |
| 2026-05-06 03:11 | 21.50565 | 52.44227 | 33805 ft | 500 kts | 149° |
| 2026-05-06 03:12 | 21.44777 | 52.48410 | 33807 ft | 501 kts | 149° |
| 2026-05-06 03:12 | 21.39016 | 52.52570 | 33807 ft | 502 kts | 149° |
| 2026-05-06 03:13 | 21.33222 | 52.56749 | 33802 ft | 502 kts | 149° |
| 2026-05-06 03:13 | 21.27430 | 52.60924 | 33805 ft | 502 kts | 149° |
| 2026-05-06 03:14 | 21.21635 | 52.65096 | 33801 ft | 502 kts | 149° |
| 2026-05-06 03:14 | 21.15927 | 52.69202 | 33802 ft | 501 kts | 149° |
| 2026-05-06 03:15 | 21.10056 | 52.73421 | 33806 ft | 501 kts | 149° |
| 2026-05-06 03:15 | 21.04291 | 52.77560 | 33800 ft | 500 kts | 149° |
| 2026-05-06 03:16 | 20.98504 | 52.81711 | 33811 ft | 500 kts | 149° |
| 2026-05-06 03:16 | 20.92735 | 52.85845 | 33799 ft | 499 kts | 148° |
| 2026-05-06 03:17 | 20.86968 | 52.89973 | 33799 ft | 498 kts | 148° |
| 2026-05-06 03:17 | 20.81202 | 52.94097 | 33819 ft | 497 kts | 148° |
| 2026-05-06 03:18 | 20.75449 | 52.98208 | 33814 ft | 497 kts | 148° |
| 2026-05-06 03:18 | 20.69733 | 53.02288 | 33798 ft | 497 kts | 148° |
| 2026-05-06 03:19 | 20.63988 | 53.06386 | 33800 ft | 497 kts | 148° |
| 2026-05-06 03:19 | 20.58228 | 53.10490 | 33813 ft | 497 kts | 148° |
| 2026-05-06 03:20 | 20.49635 | 53.16606 | 33814 ft | 497 kts | 148° |
| 2026-05-06 03:20 | 20.43882 | 53.20696 | 33812 ft | 496 kts | 148° |
| 2026-05-06 03:21 | 20.38130 | 53.24782 | 33809 ft | 496 kts | 148° |
| 2026-05-06 03:21 | 20.32392 | 53.28854 | 33808 ft | 495 kts | 148° |
| 2026-05-06 03:22 | 20.26657 | 53.32920 | 33803 ft | 495 kts | 148° |
| 2026-05-06 03:22 | 20.20926 | 53.36980 | 33807 ft | 494 kts | 148° |
| 2026-05-06 03:23 | 20.15233 | 53.41009 | 33810 ft | 494 kts | 148° |
| 2026-05-06 03:23 | 20.09506 | 53.45059 | 33807 ft | 494 kts | 148° |
| 2026-05-06 03:24 | 20.03792 | 53.49095 | 33809 ft | 493 kts | 148° |
| 2026-05-06 03:24 | 19.98071 | 53.53133 | 33802 ft | 493 kts | 148° |
| 2026-05-06 03:25 | 19.92358 | 53.57162 | 33808 ft | 493 kts | 148° |
| 2026-05-06 03:25 | 19.86645 | 53.61189 | 33808 ft | 492 kts | 148° |
| 2026-05-06 03:26 | 19.80931 | 53.65211 | 33806 ft | 492 kts | 148° |
| 2026-05-06 03:26 | 19.75221 | 53.69228 | 33807 ft | 492 kts | 148° |
| 2026-05-06 03:27 | 19.69545 | 53.73219 | 33807 ft | 492 kts | 148° |
| 2026-05-06 03:27 | 19.63882 | 53.77302 | 33801 ft | 492 kts | 141° |
| 2026-05-06 03:28 | 19.61502 | 53.79914 | 33804 ft | 495 kts | 128° |
| 2026-05-06 03:28 | 19.59683 | 53.83014 | 33809 ft | 497 kts | 116° |
| 2026-05-06 03:28 | 19.57607 | 53.90015 | 33820 ft | 499 kts | 105° |
| 2026-05-06 03:29 | 19.55746 | 53.97119 | 33821 ft | 501 kts | 107° |
| 2026-05-06 03:29 | 19.53749 | 54.04208 | 33818 ft | 502 kts | 108° |
| 2026-05-06 03:30 | 19.51745 | 54.11263 | 33820 ft | 503 kts | 108° |
| 2026-05-06 03:30 | 19.49735 | 54.18356 | 33822 ft | 503 kts | 108° |
| 2026-05-06 03:31 | 19.47727 | 54.25448 | 33815 ft | 502 kts | 107° |
| 2026-05-06 03:31 | 19.45720 | 54.32529 | 33817 ft | 501 kts | 107° |
| 2026-05-06 03:32 | 19.43723 | 54.39563 | 33828 ft | 499 kts | 108° |
| 2026-05-06 03:32 | 19.41720 | 54.46603 | 33823 ft | 499 kts | 107° |
| 2026-05-06 03:33 | 19.39719 | 54.53628 | 33829 ft | 498 kts | 108° |
| 2026-05-06 03:33 | 19.37717 | 54.60642 | 33830 ft | 497 kts | 108° |
| 2026-05-06 03:34 | 19.35710 | 54.67664 | 33833 ft | 497 kts | 107° |
| 2026-05-06 03:34 | 19.33716 | 54.74630 | 33832 ft | 497 kts | 108° |
| 2026-05-06 03:35 | 19.31705 | 54.81644 | 33834 ft | 497 kts | 108° |
| 2026-05-06 03:35 | 19.29691 | 54.88655 | 33840 ft | 498 kts | 108° |
| 2026-05-06 03:36 | 19.27671 | 54.95678 | 33848 ft | 498 kts | 108° |
| 2026-05-06 03:36 | 19.25650 | 55.02697 | 33849 ft | 498 kts | 108° |
| 2026-05-06 03:37 | 19.23623 | 55.09719 | 33854 ft | 498 kts | 108° |
| 2026-05-06 03:37 | 19.21610 | 55.16687 | 33853 ft | 498 kts | 108° |
| 2026-05-06 03:38 | 19.19583 | 55.23690 | 33853 ft | 497 kts | 108° |
| 2026-05-06 03:38 | 19.17558 | 55.30677 | 33853 ft | 497 kts | 108° |
| 2026-05-06 03:39 | 19.15527 | 55.37670 | 33862 ft | 497 kts | 107° |
| 2026-05-06 03:39 | 19.13496 | 55.44660 | 33858 ft | 497 kts | 108° |
| 2026-05-06 03:40 | 19.11475 | 55.51603 | 33864 ft | 497 kts | 107° |
| 2026-05-06 03:40 | 19.09305 | 55.58526 | 33857 ft | 493 kts | 118° |
| 2026-05-06 03:41 | 19.07378 | 55.61485 | 33864 ft | 488 kts | 136° |
| 2026-05-06 03:41 | 19.04718 | 55.63682 | 33866 ft | 486 kts | 152° |
| 2026-05-06 03:41 | 19.01601 | 55.65020 | 33869 ft | 484 kts | 167° |
| 2026-05-06 03:41 | 18.98277 | 55.65523 | 33873 ft | 483 kts | 179° |
| 2026-05-06 03:42 | 18.91683 | 55.64394 | 33861 ft | 483 kts | 205° |
| 2026-05-06 03:42 | 18.85860 | 55.60885 | 33870 ft | 483 kts | 211° |
| 2026-05-06 03:43 | 18.80114 | 55.57250 | 33870 ft | 485 kts | 210° |
| 2026-05-06 03:43 | 18.74277 | 55.53680 | 33862 ft | 485 kts | 209° |
| 2026-05-06 03:44 | 18.68399 | 55.50157 | 33867 ft | 484 kts | 209° |
| 2026-05-06 03:44 | 18.62545 | 55.46660 | 33855 ft | 483 kts | 209° |
| 2026-05-06 03:45 | 18.56715 | 55.43176 | 33863 ft | 480 kts | 210° |
| 2026-05-06 03:45 | 18.50904 | 55.39701 | 33861 ft | 480 kts | 209° |
| 2026-05-06 03:46 | 18.45100 | 55.36233 | 33863 ft | 480 kts | 209° |
| 2026-05-06 03:46 | 18.39288 | 55.32763 | 33865 ft | 480 kts | 209° |
| 2026-05-06 03:47 | 18.33468 | 55.29291 | 33863 ft | 481 kts | 209° |
| 2026-05-06 03:47 | 18.27637 | 55.25812 | 33865 ft | 482 kts | 210° |
| 2026-05-06 03:48 | 18.21788 | 55.22323 | 33863 ft | 483 kts | 210° |
| 2026-05-06 03:48 | 18.15975 | 55.18859 | 33864 ft | 484 kts | 210° |
| 2026-05-06 03:49 | 18.09909 | 55.15781 | 33866 ft | 484 kts | 203° |
| 2026-05-06 03:49 | 18.03693 | 55.13042 | 33866 ft | 485 kts | 203° |
| 2026-05-06 03:50 | 17.97463 | 55.10283 | 33867 ft | 485 kts | 203° |
| 2026-05-06 03:50 | 17.91254 | 55.07506 | 33871 ft | 485 kts | 203° |
| 2026-05-06 03:51 | 17.85091 | 55.04742 | 33866 ft | 485 kts | 203° |
| 2026-05-06 03:51 | 17.78881 | 55.01958 | 33876 ft | 485 kts | 203° |
| 2026-05-06 03:52 | 17.72677 | 54.99182 | 33873 ft | 485 kts | 203° |
| 2026-05-06 03:52 | 17.66465 | 54.96404 | 33881 ft | 485 kts | 203° |
| 2026-05-06 03:53 | 17.61304 | 54.94097 | 33876 ft | 485 kts | 203° |
| 2026-05-06 03:53 | 17.55095 | 54.91324 | 33885 ft | 485 kts | 203° |
| 2026-05-06 03:54 | 17.48879 | 54.88550 | 33886 ft | 486 kts | 203° |
| 2026-05-06 03:54 | 17.42663 | 54.85778 | 33892 ft | 486 kts | 203° |
| 2026-05-06 03:55 | 17.36425 | 54.82997 | 33895 ft | 487 kts | 203° |
| 2026-05-06 03:55 | 17.30180 | 54.80216 | 33893 ft | 487 kts | 203° |
| 2026-05-06 03:56 | 17.24176 | 54.77038 | 33887 ft | 487 kts | 212° |
| 2026-05-06 03:56 | 17.18495 | 54.73162 | 33892 ft | 488 kts | 213° |
| 2026-05-06 03:57 | 17.12801 | 54.69302 | 33896 ft | 488 kts | 212° |
| 2026-05-06 03:57 | 17.07079 | 54.65468 | 33901 ft | 488 kts | 212° |
| 2026-05-06 03:58 | 17.01354 | 54.61647 | 33887 ft | 488 kts | 212° |
| 2026-05-06 03:58 | 16.95632 | 54.57828 | 33886 ft | 488 kts | 212° |
| 2026-05-06 03:59 | 16.89908 | 54.54007 | 33871 ft | 488 kts | 212° |
| 2026-05-06 03:59 | 16.84180 | 54.50188 | 33864 ft | 488 kts | 212° |
| 2026-05-06 04:00 | 16.78487 | 54.46390 | 33868 ft | 489 kts | 212° |
| 2026-05-06 04:00 | 16.72755 | 54.42568 | 33862 ft | 489 kts | 212° |
| 2026-05-06 04:01 | 16.67015 | 54.38744 | 33859 ft | 490 kts | 212° |
| 2026-05-06 04:01 | 16.61261 | 54.34912 | 33858 ft | 490 kts | 212° |
| 2026-05-06 04:02 | 16.55501 | 54.31080 | 33853 ft | 491 kts | 212° |
| 2026-05-06 04:02 | 16.49743 | 54.27252 | 33864 ft | 491 kts | 212° |
| 2026-05-06 04:03 | 16.44012 | 54.23444 | 33867 ft | 491 kts | 212° |
| 2026-05-06 04:03 | 16.38242 | 54.19614 | 33869 ft | 492 kts | 212° |
| 2026-05-06 04:04 | 16.32472 | 54.15786 | 33868 ft | 492 kts | 212° |
| 2026-05-06 04:04 | 16.26691 | 54.11952 | 33869 ft | 492 kts | 212° |
| 2026-05-06 04:05 | 16.20903 | 54.08118 | 33881 ft | 492 kts | 212° |
| 2026-05-06 04:05 | 16.15164 | 54.04318 | 33880 ft | 491 kts | 212° |
| 2026-05-06 04:06 | 16.09396 | 54.00502 | 33881 ft | 491 kts | 212° |
| 2026-05-06 04:06 | 16.03625 | 53.96687 | 33883 ft | 491 kts | 212° |
| 2026-05-06 04:07 | 15.97868 | 53.92883 | 33882 ft | 491 kts | 212° |
| 2026-05-06 04:07 | 15.92098 | 53.89072 | 33888 ft | 491 kts | 212° |
| 2026-05-06 04:08 | 15.86340 | 53.85270 | 33886 ft | 490 kts | 212° |
| 2026-05-06 04:08 | 15.80609 | 53.81446 | 33885 ft | 489 kts | 212° |
| 2026-05-06 04:09 | 15.74892 | 53.77621 | 33884 ft | 488 kts | 212° |
| 2026-05-06 04:09 | 15.69179 | 53.73805 | 33889 ft | 488 kts | 212° |
| 2026-05-06 04:10 | 15.63465 | 53.69995 | 33884 ft | 488 kts | 211° |
| 2026-05-06 04:10 | 15.57781 | 53.66209 | 33895 ft | 488 kts | 212° |
| 2026-05-06 04:11 | 15.52074 | 53.62407 | 33881 ft | 487 kts | 211° |
| 2026-05-06 04:11 | 15.46376 | 53.58614 | 33886 ft | 486 kts | 211° |
| 2026-05-06 04:12 | 15.40667 | 53.54846 | 33884 ft | 486 kts | 211° |
| 2026-05-06 04:12 | 15.34919 | 53.51168 | 33893 ft | 485 kts | 210° |
| 2026-05-06 04:13 | 15.29164 | 53.47503 | 33884 ft | 486 kts | 211° |
| 2026-05-06 04:13 | 15.23414 | 53.43828 | 33886 ft | 486 kts | 211° |
| 2026-05-06 04:14 | 15.17661 | 53.40144 | 33892 ft | 486 kts | 211° |
| 2026-05-06 04:14 | 15.11906 | 53.36460 | 33880 ft | 487 kts | 211° |
| 2026-05-06 04:15 | 15.06148 | 53.32778 | 33892 ft | 486 kts | 211° |
| 2026-05-06 04:15 | 15.00388 | 53.29097 | 33892 ft | 486 kts | 211° |
| 2026-05-06 04:16 | 14.94622 | 53.25414 | 33884 ft | 487 kts | 211° |
| 2026-05-06 04:16 | 14.88905 | 53.21764 | 33893 ft | 486 kts | 211° |
| 2026-05-06 04:17 | 14.83149 | 53.18093 | 33889 ft | 485 kts | 211° |
| 2026-05-06 04:17 | 14.77400 | 53.14428 | 33887 ft | 485 kts | 211° |
| 2026-05-06 04:18 | 14.71657 | 53.10767 | 33895 ft | 484 kts | 211° |
| 2026-05-06 04:18 | 14.65914 | 53.07111 | 33886 ft | 484 kts | 211° |
| 2026-05-06 04:19 | 14.60222 | 53.03466 | 33890 ft | 485 kts | 211° |
| 2026-05-06 04:19 | 14.54497 | 52.99782 | 33895 ft | 485 kts | 211° |
| 2026-05-06 04:20 | 14.48763 | 52.96096 | 33886 ft | 485 kts | 211° |
| 2026-05-06 04:20 | 14.43034 | 52.92417 | 33887 ft | 485 kts | 211° |
| 2026-05-06 04:21 | 14.37289 | 52.88733 | 33891 ft | 485 kts | 210° |
| 2026-05-06 04:21 | 14.31558 | 52.85060 | 33880 ft | 485 kts | 211° |
| 2026-05-06 04:22 | 14.25828 | 52.81389 | 33892 ft | 485 kts | 211° |
| 2026-05-06 04:23 | 14.17269 | 52.75910 | 33887 ft | 485 kts | 211° |
| 2026-05-06 04:23 | 14.11536 | 52.72243 | 33887 ft | 485 kts | 211° |
| 2026-05-06 04:24 | 14.05799 | 52.68576 | 33885 ft | 485 kts | 211° |
| 2026-05-06 04:24 | 14.00053 | 52.64904 | 33890 ft | 485 kts | 210° |
| 2026-05-06 04:25 | 13.94308 | 52.61236 | 33884 ft | 486 kts | 210° |
| 2026-05-06 04:25 | 13.88550 | 52.57562 | 33892 ft | 487 kts | 211° |
| 2026-05-06 04:26 | 13.82828 | 52.53913 | 33892 ft | 487 kts | 210° |
| 2026-05-06 04:26 | 13.77053 | 52.50232 | 33881 ft | 488 kts | 210° |
| 2026-05-06 04:27 | 13.71272 | 52.46549 | 33886 ft | 488 kts | 210° |
| 2026-05-06 04:27 | 13.65496 | 52.42872 | 33885 ft | 489 kts | 210° |
| 2026-05-06 04:28 | 13.59707 | 52.39189 | 33888 ft | 489 kts | 210° |
| 2026-05-06 04:28 | 13.53907 | 52.35500 | 33882 ft | 490 kts | 210° |
| 2026-05-06 04:29 | 13.48110 | 52.31815 | 33886 ft | 490 kts | 210° |
| 2026-05-06 04:29 | 13.42311 | 52.28131 | 33886 ft | 490 kts | 210° |
| 2026-05-06 04:30 | 13.36510 | 52.24451 | 33890 ft | 490 kts | 210° |
| 2026-05-06 04:30 | 13.30742 | 52.20806 | 33889 ft | 490 kts | 210° |
| 2026-05-06 04:31 | 13.24931 | 52.17138 | 33890 ft | 490 kts | 210° |
| 2026-05-06 04:31 | 13.19126 | 52.13473 | 33888 ft | 489 kts | 210° |
| 2026-05-06 04:32 | 13.13329 | 52.09814 | 33893 ft | 489 kts | 210° |
| 2026-05-06 04:32 | 13.07528 | 52.06155 | 33885 ft | 489 kts | 210° |
| 2026-05-06 04:33 | 13.01729 | 52.02498 | 33892 ft | 489 kts | 210° |
| 2026-05-06 04:33 | 12.95983 | 51.98878 | 33881 ft | 488 kts | 209° |
| 2026-05-06 04:34 | 12.90185 | 51.95227 | 33883 ft | 488 kts | 210° |
| 2026-05-06 04:34 | 12.84412 | 51.91593 | 33887 ft | 487 kts | 210° |
| 2026-05-06 04:35 | 12.78629 | 51.87955 | 33888 ft | 487 kts | 210° |
| 2026-05-06 04:35 | 12.72854 | 51.84323 | 33887 ft | 487 kts | 210° |
| 2026-05-06 04:36 | 12.67077 | 51.80693 | 33887 ft | 487 kts | 210° |
| 2026-05-06 04:36 | 12.61291 | 51.77060 | 33879 ft | 487 kts | 208° |
| 2026-05-06 04:37 | 12.55546 | 51.73454 | 33885 ft | 487 kts | 210° |
| 2026-05-06 04:37 | 12.49770 | 51.69828 | 33890 ft | 487 kts | 210° |
| 2026-05-06 04:38 | 12.43984 | 51.66201 | 33883 ft | 487 kts | 209° |
| 2026-05-06 04:38 | 12.38205 | 51.62580 | 33875 ft | 487 kts | 210° |
| 2026-05-06 04:39 | 12.32417 | 51.58953 | 33883 ft | 487 kts | 210° |
| 2026-05-06 04:39 | 12.27608 | 51.55942 | 33885 ft | 488 kts | 210° |
| 2026-05-06 04:40 | 12.20876 | 51.51729 | 33880 ft | 488 kts | 210° |
| 2026-05-06 04:40 | 12.15083 | 51.48105 | 33886 ft | 488 kts | 210° |
| 2026-05-06 04:41 | 12.10257 | 51.45087 | 33886 ft | 488 kts | 209° |
| 2026-05-06 04:41 | 12.04448 | 51.41456 | 33886 ft | 488 kts | 210° |
| 2026-05-06 04:42 | 11.98646 | 51.37832 | 33892 ft | 488 kts | 210° |
| 2026-05-06 04:42 | 11.92883 | 51.34233 | 33887 ft | 488 kts | 210° |
| 2026-05-06 04:43 | 11.87089 | 51.30614 | 33897 ft | 488 kts | 210° |
| 2026-05-06 04:43 | 11.81296 | 51.26997 | 33903 ft | 489 kts | 210° |
| 2026-05-06 04:44 | 11.75483 | 51.23369 | 33890 ft | 489 kts | 210° |
| 2026-05-06 04:44 | 11.69675 | 51.19746 | 33904 ft | 489 kts | 210° |
| 2026-05-06 04:45 | 11.63864 | 51.16124 | 33900 ft | 489 kts | 210° |
| 2026-05-06 04:45 | 11.58052 | 51.12502 | 33909 ft | 489 kts | 210° |
| 2026-05-06 04:46 | 11.52237 | 51.08881 | 33912 ft | 490 kts | 210° |
| 2026-05-06 04:46 | 11.46420 | 51.05259 | 33919 ft | 490 kts | 210° |
| 2026-05-06 04:47 | 11.40645 | 51.01665 | 33924 ft | 490 kts | 210° |
| 2026-05-06 04:47 | 11.34827 | 50.98044 | 33917 ft | 490 kts | 210° |
| 2026-05-06 04:48 | 11.29003 | 50.94417 | 33929 ft | 490 kts | 210° |
| 2026-05-06 04:48 | 11.23186 | 50.90793 | 33925 ft | 490 kts | 210° |
| 2026-05-06 04:49 | 11.17362 | 50.87168 | 33922 ft | 490 kts | 210° |
| 2026-05-06 04:49 | 11.11577 | 50.83568 | 33931 ft | 490 kts | 210° |
| 2026-05-06 04:50 | 11.05758 | 50.79950 | 33918 ft | 490 kts | 210° |
| 2026-05-06 04:50 | 10.99936 | 50.76331 | 33930 ft | 490 kts | 210° |
| 2026-05-06 04:51 | 10.94103 | 50.72707 | 33918 ft | 491 kts | 210° |
| 2026-05-06 04:51 | 10.88272 | 50.69086 | 33927 ft | 491 kts | 210° |
| 2026-05-06 04:52 | 10.82438 | 50.65464 | 33922 ft | 491 kts | 210° |
| 2026-05-06 04:52 | 10.76593 | 50.61838 | 33917 ft | 492 kts | 210° |
| 2026-05-06 04:53 | 10.70784 | 50.58236 | 33926 ft | 492 kts | 210° |
| 2026-05-06 04:53 | 10.64931 | 50.54608 | 33922 ft | 492 kts | 210° |
| 2026-05-06 04:54 | 10.59075 | 50.50980 | 33921 ft | 492 kts | 210° |
| 2026-05-06 04:54 | 10.53223 | 50.47356 | 33921 ft | 493 kts | 210° |
| 2026-05-06 04:55 | 10.47364 | 50.43728 | 33924 ft | 492 kts | 210° |
| 2026-05-06 04:55 | 10.41511 | 50.40107 | 33921 ft | 492 kts | 210° |
| 2026-05-06 04:56 | 10.35658 | 50.36487 | 33924 ft | 492 kts | 210° |
| 2026-05-06 04:56 | 10.29805 | 50.32869 | 33928 ft | 492 kts | 210° |
| 2026-05-06 04:57 | 10.23952 | 50.29252 | 33929 ft | 492 kts | 210° |
| 2026-05-06 04:57 | 10.18100 | 50.25638 | 33931 ft | 492 kts | 210° |
| 2026-05-06 04:58 | 10.12281 | 50.22045 | 33933 ft | 492 kts | 210° |
| 2026-05-06 04:58 | 10.06433 | 50.18436 | 33937 ft | 492 kts | 210° |
| 2026-05-06 04:59 | 10.00580 | 50.14826 | 33943 ft | 492 kts | 210° |
| 2026-05-06 04:59 | 9.94733 | 50.11220 | 33950 ft | 492 kts | 210° |
| 2026-05-06 05:00 | 9.88887 | 50.07618 | 33946 ft | 492 kts | 209° |
| 2026-05-06 05:00 | 9.83040 | 50.04015 | 33960 ft | 492 kts | 210° |
| 2026-05-06 05:01 | 9.77182 | 50.00407 | 33960 ft | 492 kts | 210° |
| 2026-05-06 05:01 | 9.71357 | 49.96823 | 33965 ft | 493 kts | 210° |
| 2026-05-06 05:02 | 9.65494 | 49.93215 | 33965 ft | 493 kts | 210° |
| 2026-05-06 05:02 | 9.59625 | 49.89605 | 33961 ft | 494 kts | 210° |
| 2026-05-06 05:03 | 9.53750 | 49.85992 | 33967 ft | 494 kts | 210° |
| 2026-05-06 05:03 | 9.47866 | 49.82376 | 33963 ft | 495 kts | 210° |
| 2026-05-06 05:04 | 9.41968 | 49.78753 | 33968 ft | 495 kts | 210° |
| 2026-05-06 05:04 | 9.36071 | 49.75131 | 33965 ft | 496 kts | 210° |
| 2026-05-06 05:05 | 9.30176 | 49.71512 | 33965 ft | 496 kts | 210° |
| 2026-05-06 05:05 | 9.24257 | 49.67879 | 33964 ft | 496 kts | 210° |
| 2026-05-06 05:06 | 9.18349 | 49.64260 | 33964 ft | 496 kts | 210° |
| 2026-05-06 05:06 | 9.12447 | 49.60651 | 33964 ft | 496 kts | 210° |
| 2026-05-06 05:07 | 9.06534 | 49.57036 | 33965 ft | 496 kts | 210° |
| 2026-05-06 05:07 | 9.00631 | 49.53427 | 33962 ft | 496 kts | 210° |
| 2026-05-06 05:08 | 8.94724 | 49.49816 | 33965 ft | 495 kts | 210° |
| 2026-05-06 05:08 | 8.88866 | 49.46236 | 33963 ft | 495 kts | 210° |
| 2026-05-06 05:09 | 8.82970 | 49.42635 | 33965 ft | 495 kts | 210° |
| 2026-05-06 05:09 | 8.77075 | 49.39035 | 33963 ft | 495 kts | 210° |
| 2026-05-06 05:10 | 8.71180 | 49.35437 | 33965 ft | 495 kts | 210° |
| 2026-05-06 05:10 | 8.65278 | 49.31835 | 33968 ft | 495 kts | 210° |
| 2026-05-06 05:11 | 8.59376 | 49.28236 | 33962 ft | 495 kts | 210° |
| 2026-05-06 05:11 | 8.53522 | 49.24670 | 33961 ft | 494 kts | 210° |
| 2026-05-06 05:12 | 8.47635 | 49.21082 | 33958 ft | 494 kts | 210° |
| 2026-05-06 05:12 | 8.41750 | 49.17497 | 33956 ft | 494 kts | 210° |
| 2026-05-06 05:13 | 8.35869 | 49.13915 | 33953 ft | 493 kts | 210° |
| 2026-05-06 05:13 | 8.29984 | 49.10332 | 33954 ft | 493 kts | 210° |
| 2026-05-06 05:14 | 8.24111 | 49.06757 | 33957 ft | 493 kts | 210° |
| 2026-05-06 05:14 | 8.18240 | 49.03184 | 33960 ft | 492 kts | 210° |
| 2026-05-06 05:15 | 8.12370 | 48.99615 | 33962 ft | 492 kts | 210° |
| 2026-05-06 05:15 | 8.06501 | 48.96046 | 33961 ft | 492 kts | 210° |
| 2026-05-06 05:16 | 8.00632 | 48.92479 | 33963 ft | 492 kts | 210° |
| 2026-05-06 05:16 | 7.94808 | 48.88940 | 33963 ft | 491 kts | 210° |
| 2026-05-06 05:17 | 7.88940 | 48.85376 | 33958 ft | 491 kts | 210° |
| 2026-05-06 05:17 | 7.83096 | 48.81828 | 33964 ft | 490 kts | 210° |
| 2026-05-06 05:18 | 7.77260 | 48.78285 | 33964 ft | 489 kts | 210° |
| 2026-05-06 05:18 | 7.71428 | 48.74746 | 33963 ft | 489 kts | 210° |
| 2026-05-06 05:19 | 7.65598 | 48.71210 | 33960 ft | 489 kts | 210° |
| 2026-05-06 05:19 | 7.59768 | 48.67674 | 33956 ft | 488 kts | 210° |
| 2026-05-06 05:20 | 7.53985 | 48.64168 | 33955 ft | 488 kts | 210° |
| 2026-05-06 05:20 | 7.48160 | 48.60638 | 33952 ft | 489 kts | 211° |
| 2026-05-06 05:21 | 7.42321 | 48.57100 | 33946 ft | 490 kts | 210° |
| 2026-05-06 05:21 | 7.36489 | 48.53567 | 33954 ft | 489 kts | 210° |
| 2026-05-06 05:22 | 7.30663 | 48.50019 | 33947 ft | 489 kts | 210° |
| 2026-05-06 05:22 | 7.24846 | 48.46425 | 34240 ft | 489 kts | 210° |
| 2026-05-06 05:22 | 7.21962 | 48.44640 | 34757 ft | 484 kts | 211° |
| 2026-05-06 05:23 | 7.19099 | 48.42868 | 35093 ft | 483 kts | 211° |
| 2026-05-06 05:23 | 7.16255 | 48.41112 | 35258 ft | 486 kts | 210° |
| 2026-05-06 05:23 | 7.10485 | 48.37553 | 35941 ft | 481 kts | 211° |
| 2026-05-06 05:24 | 7.04804 | 48.34051 | 35937 ft | 481 kts | 210° |
| 2026-05-06 05:24 | 6.99101 | 48.30537 | 35950 ft | 480 kts | 210° |
| 2026-05-06 05:25 | 6.93389 | 48.27019 | 35926 ft | 481 kts | 211° |
| 2026-05-06 05:25 | 6.87679 | 48.23502 | 35931 ft | 481 kts | 210° |
| 2026-05-06 05:26 | 6.81963 | 48.19983 | 35950 ft | 481 kts | 210° |
| 2026-05-06 05:26 | 6.76246 | 48.16464 | 35927 ft | 482 kts | 210° |
| 2026-05-06 05:27 | 6.70532 | 48.12948 | 35925 ft | 481 kts | 211° |
| 2026-05-06 05:27 | 6.64823 | 48.09436 | 35942 ft | 480 kts | 210° |
| 2026-05-06 05:28 | 6.60082 | 48.06520 | 35926 ft | 480 kts | 210° |
| 2026-05-06 05:28 | 6.54388 | 48.03019 | 35920 ft | 479 kts | 211° |
| 2026-05-06 05:29 | 6.48696 | 47.99520 | 35948 ft | 479 kts | 210° |
| 2026-05-06 05:29 | 6.43005 | 47.96023 | 35923 ft | 479 kts | 210° |
| 2026-05-06 05:30 | 6.37323 | 47.92532 | 35922 ft | 478 kts | 211° |
| 2026-05-06 05:30 | 6.31682 | 47.89067 | 35919 ft | 478 kts | 210° |
| 2026-05-06 05:31 | 6.26005 | 47.85581 | 35937 ft | 478 kts | 211° |
| 2026-05-06 05:31 | 6.20328 | 47.82096 | 35919 ft | 478 kts | 211° |
| 2026-05-06 05:32 | 6.14649 | 47.78611 | 35915 ft | 478 kts | 211° |
| 2026-05-06 05:32 | 6.08972 | 47.75127 | 35936 ft | 478 kts | 211° |
| 2026-05-06 05:33 | 6.03293 | 47.71643 | 35934 ft | 477 kts | 211° |
| 2026-05-06 05:33 | 5.97624 | 47.68167 | 35915 ft | 477 kts | 211° |
| 2026-05-06 05:34 | 5.91951 | 47.64689 | 35911 ft | 477 kts | 211° |
| 2026-05-06 05:34 | 5.86284 | 47.61214 | 35935 ft | 477 kts | 210° |
| 2026-05-06 05:35 | 5.80617 | 47.57741 | 35928 ft | 477 kts | 211° |
| 2026-05-06 05:35 | 5.74989 | 47.54292 | 35913 ft | 477 kts | 210° |
| 2026-05-06 05:36 | 5.69325 | 47.50822 | 35932 ft | 477 kts | 211° |
| 2026-05-06 05:36 | 5.63653 | 47.47354 | 35914 ft | 477 kts | 211° |
| 2026-05-06 05:37 | 5.57966 | 47.43918 | 35910 ft | 476 kts | 210° |
| 2026-05-06 05:37 | 5.52282 | 47.40494 | 35926 ft | 476 kts | 211° |
| 2026-05-06 05:38 | 5.46597 | 47.37066 | 35929 ft | 477 kts | 210° |
| 2026-05-06 05:38 | 5.40917 | 47.33637 | 35912 ft | 476 kts | 210° |
| 2026-05-06 05:39 | 5.35269 | 47.30227 | 35914 ft | 476 kts | 210° |
| 2026-05-06 05:39 | 5.29603 | 47.26807 | 35932 ft | 475 kts | 210° |
| 2026-05-06 05:40 | 5.23939 | 47.23389 | 35934 ft | 474 kts | 210° |
| 2026-05-06 05:40 | 5.18281 | 47.19976 | 35917 ft | 474 kts | 210° |
| 2026-05-06 05:41 | 5.12633 | 47.16569 | 35932 ft | 474 kts | 210° |
| 2026-05-06 05:41 | 5.06971 | 47.13155 | 35939 ft | 474 kts | 210° |
| 2026-05-06 05:42 | 5.01348 | 47.09765 | 35918 ft | 474 kts | 210° |
| 2026-05-06 05:42 | 4.95688 | 47.06353 | 35937 ft | 475 kts | 210° |
| 2026-05-06 05:43 | 4.90022 | 47.02939 | 35942 ft | 475 kts | 210° |
| 2026-05-06 05:43 | 4.84348 | 46.99520 | 35940 ft | 475 kts | 210° |
| 2026-05-06 05:44 | 4.78681 | 46.96106 | 35922 ft | 475 kts | 210° |
| 2026-05-06 05:44 | 4.73013 | 46.92692 | 35942 ft | 475 kts | 210° |
| 2026-05-06 05:45 | 4.67342 | 46.89277 | 35940 ft | 475 kts | 210° |
| 2026-05-06 05:45 | 4.61663 | 46.85858 | 35921 ft | 476 kts | 210° |
| 2026-05-06 05:46 | 4.56026 | 46.82465 | 35940 ft | 476 kts | 210° |
| 2026-05-06 05:46 | 4.50350 | 46.79048 | 35943 ft | 476 kts | 210° |
| 2026-05-06 05:47 | 4.44673 | 46.75633 | 35923 ft | 476 kts | 210° |
| 2026-05-06 05:47 | 4.38996 | 46.72217 | 35940 ft | 476 kts | 210° |
| 2026-05-06 05:48 | 4.33313 | 46.68798 | 35945 ft | 476 kts | 210° |
| 2026-05-06 05:48 | 4.27635 | 46.65384 | 35945 ft | 476 kts | 210° |
| 2026-05-06 05:49 | 4.21952 | 46.61967 | 35942 ft | 476 kts | 210° |
| 2026-05-06 05:49 | 4.16275 | 46.58554 | 35945 ft | 476 kts | 210° |
| 2026-05-06 05:50 | 4.10598 | 46.55141 | 35950 ft | 476 kts | 210° |
| 2026-05-06 05:50 | 4.04954 | 46.51749 | 35945 ft | 476 kts | 210° |
| 2026-05-06 05:51 | 3.99280 | 46.48340 | 35933 ft | 475 kts | 210° |
| 2026-05-06 05:51 | 3.93608 | 46.44931 | 35952 ft | 475 kts | 210° |
| 2026-05-06 05:52 | 3.87936 | 46.41524 | 35948 ft | 475 kts | 210° |
| 2026-05-06 05:52 | 3.82265 | 46.38118 | 35925 ft | 475 kts | 210° |
| 2026-05-06 05:53 | 3.76587 | 46.34709 | 35947 ft | 475 kts | 210° |
| 2026-05-06 05:53 | 3.70946 | 46.31322 | 35956 ft | 475 kts | 210° |
| 2026-05-06 05:54 | 3.65268 | 46.27913 | 35953 ft | 475 kts | 210° |
| 2026-05-06 05:54 | 3.59591 | 46.24505 | 35936 ft | 475 kts | 210° |
| 2026-05-06 05:55 | 3.53919 | 46.21102 | 35954 ft | 475 kts | 210° |
| 2026-05-06 05:55 | 3.48242 | 46.17694 | 35957 ft | 476 kts | 210° |
| 2026-05-06 05:56 | 3.42563 | 46.14288 | 35952 ft | 476 kts | 210° |
| 2026-05-06 05:56 | 3.36884 | 46.10880 | 35952 ft | 476 kts | 210° |
| 2026-05-06 05:57 | 3.31212 | 46.07478 | 35960 ft | 475 kts | 210° |
| 2026-05-06 05:57 | 3.25536 | 46.04074 | 35956 ft | 475 kts | 210° |
| 2026-05-06 05:58 | 3.19861 | 46.00671 | 35955 ft | 476 kts | 210° |
| 2026-05-06 05:58 | 3.14184 | 45.97267 | 35953 ft | 476 kts | 210° |
| 2026-05-06 05:59 | 3.08534 | 45.93880 | 35955 ft | 476 kts | 210° |
| 2026-05-06 05:59 | 3.02849 | 45.90472 | 35954 ft | 476 kts | 210° |
| 2026-05-06 06:00 | 2.97159 | 45.87062 | 35948 ft | 477 kts | 210° |
| 2026-05-06 06:00 | 2.91468 | 45.83651 | 35957 ft | 477 kts | 210° |
| 2026-05-06 06:01 | 2.85770 | 45.80237 | 35954 ft | 477 kts | 210° |
| 2026-05-06 06:01 | 2.80079 | 45.76827 | 35933 ft | 477 kts | 210° |
| 2026-05-06 06:02 | 2.74378 | 45.73412 | 35936 ft | 477 kts | 211° |
| 2026-05-06 06:02 | 2.68676 | 45.69997 | 35957 ft | 478 kts | 210° |
| 2026-05-06 06:03 | 2.63000 | 45.66597 | 35953 ft | 478 kts | 210° |
| 2026-05-06 06:03 | 2.57295 | 45.63180 | 35929 ft | 479 kts | 210° |
| 2026-05-06 06:04 | 2.51573 | 45.59753 | 35949 ft | 479 kts | 210° |
| 2026-05-06 06:04 | 2.45855 | 45.56330 | 35931 ft | 479 kts | 210° |
| 2026-05-06 06:05 | 2.40136 | 45.52906 | 35952 ft | 479 kts | 210° |
| 2026-05-06 06:05 | 2.34409 | 45.49478 | 35947 ft | 479 kts | 211° |
| 2026-05-06 06:06 | 2.28686 | 45.46051 | 35952 ft | 479 kts | 210° |
| 2026-05-06 06:06 | 2.22998 | 45.42647 | 35951 ft | 479 kts | 211° |
| 2026-05-06 06:07 | 2.17267 | 45.39217 | 35945 ft | 480 kts | 211° |
| 2026-05-06 06:07 | 2.11539 | 45.35788 | 35946 ft | 480 kts | 211° |
| 2026-05-06 06:08 | 2.05806 | 45.32357 | 35916 ft | 480 kts | 211° |
| 2026-05-06 06:08 | 2.00075 | 45.28904 | 35914 ft | 481 kts | 212° |
| 2026-05-06 06:09 | 1.94502 | 45.25196 | 35914 ft | 481 kts | 214° |
| 2026-05-06 06:09 | 1.88958 | 45.21420 | 35917 ft | 482 kts | 214° |
| 2026-05-06 06:10 | 1.83410 | 45.17654 | 35929 ft | 482 kts | 213° |
| 2026-05-06 06:10 | 1.77880 | 45.13920 | 35941 ft | 482 kts | 213° |
| 2026-05-06 06:11 | 1.72313 | 45.10169 | 35944 ft | 483 kts | 213° |
| 2026-05-06 06:11 | 1.66736 | 45.06413 | 35942 ft | 483 kts | 213° |
| 2026-05-06 06:12 | 1.61165 | 45.02659 | 35951 ft | 483 kts | 213° |
| 2026-05-06 06:12 | 1.55585 | 44.98899 | 35948 ft | 483 kts | 214° |
| 2026-05-06 06:13 | 1.50038 | 44.95161 | 35946 ft | 484 kts | 213° |
| 2026-05-06 06:13 | 1.44453 | 44.91399 | 35945 ft | 484 kts | 214° |
| 2026-05-06 06:14 | 1.38869 | 44.87636 | 35952 ft | 485 kts | 213° |
| 2026-05-06 06:14 | 1.33274 | 44.83867 | 35949 ft | 485 kts | 214° |
| 2026-05-06 06:15 | 1.28619 | 44.80732 | 35948 ft | 485 kts | 214° |
| 2026-05-06 06:15 | 1.23020 | 44.76960 | 35947 ft | 485 kts | 213° |
| 2026-05-06 06:16 | 1.17420 | 44.73188 | 35949 ft | 485 kts | 214° |
| 2026-05-06 06:16 | 1.11820 | 44.69416 | 35949 ft | 485 kts | 213° |
| 2026-05-06 06:17 | 1.06216 | 44.65641 | 35948 ft | 485 kts | 212° |
| 2026-05-06 06:17 | 1.00615 | 44.61869 | 35945 ft | 485 kts | 213° |
| 2026-05-06 06:18 | 0.95022 | 44.58103 | 35949 ft | 485 kts | 213° |
| 2026-05-06 06:18 | 0.89461 | 44.54358 | 35949 ft | 485 kts | 213° |
| 2026-05-06 06:19 | 0.83867 | 44.50591 | 35947 ft | 485 kts | 213° |
| 2026-05-06 06:19 | 0.78265 | 44.46819 | 35943 ft | 485 kts | 213° |
| 2026-05-06 06:20 | 0.72669 | 44.43051 | 35950 ft | 486 kts | 213° |
| 2026-05-06 06:20 | 0.67052 | 44.39268 | 35946 ft | 487 kts | 213° |
| 2026-05-06 06:21 | 0.61431 | 44.35483 | 35948 ft | 488 kts | 213° |
| 2026-05-06 06:21 | 0.55800 | 44.31692 | 35949 ft | 488 kts | 213° |
| 2026-05-06 06:22 | 0.50153 | 44.27889 | 35947 ft | 489 kts | 213° |
| 2026-05-06 06:22 | 0.44486 | 44.24073 | 35950 ft | 491 kts | 213° |
| 2026-05-06 06:23 | 0.38851 | 44.20279 | 35950 ft | 491 kts | 214° |
| 2026-05-06 06:23 | 0.33177 | 44.16458 | 35948 ft | 492 kts | 213° |
| 2026-05-06 06:24 | 0.27501 | 44.12628 | 35949 ft | 492 kts | 214° |
| 2026-05-06 06:24 | 0.21819 | 44.08782 | 35947 ft | 493 kts | 213° |
| 2026-05-06 06:25 | 0.16136 | 44.04934 | 35953 ft | 494 kts | 213° |
| 2026-05-06 06:26 | 0.07596 | 43.99154 | 35957 ft | 494 kts | 214° |
| 2026-05-06 06:26 | 0.01898 | 43.95298 | 35956 ft | 495 kts | 214° |
| 2026-05-06 06:27 | -0.03802 | 43.91441 | 35949 ft | 495 kts | 213° |
| 2026-05-06 06:27 | -0.09510 | 43.87579 | 35950 ft | 496 kts | 213° |
| 2026-05-06 06:28 | -0.15196 | 43.83732 | 35957 ft | 497 kts | 214° |
| 2026-05-06 06:28 | -0.20930 | 43.79852 | 35958 ft | 497 kts | 213° |
| 2026-05-06 06:29 | -0.26665 | 43.75971 | 35956 ft | 498 kts | 213° |
| 2026-05-06 06:29 | -0.32411 | 43.72082 | 35951 ft | 498 kts | 214° |
| 2026-05-06 06:30 | -0.38151 | 43.68198 | 35953 ft | 498 kts | 213° |
| 2026-05-06 06:30 | -0.43887 | 43.64316 | 35956 ft | 498 kts | 213° |
| 2026-05-06 06:31 | -0.49588 | 43.60458 | 35961 ft | 497 kts | 214° |
| 2026-05-06 06:31 | -0.55319 | 43.56580 | 35959 ft | 497 kts | 214° |
| 2026-05-06 06:32 | -0.61048 | 43.52702 | 35955 ft | 497 kts | 213° |
| 2026-05-06 06:32 | -0.66782 | 43.48822 | 35954 ft | 497 kts | 213° |
| 2026-05-06 06:33 | -0.72509 | 43.44945 | 35960 ft | 497 kts | 213° |
| 2026-05-06 06:33 | -0.78238 | 43.41068 | 35960 ft | 497 kts | 213° |
| 2026-05-06 06:34 | -0.83982 | 43.37180 | 35964 ft | 498 kts | 213° |
| 2026-05-06 06:34 | -0.89718 | 43.33297 | 35959 ft | 498 kts | 213° |
| 2026-05-06 06:35 | -0.95427 | 43.29433 | 35956 ft | 499 kts | 213° |
| 2026-05-06 06:35 | -1.01164 | 43.25549 | 35959 ft | 499 kts | 213° |
| 2026-05-06 06:36 | -1.06916 | 43.21656 | 35959 ft | 499 kts | 213° |
| 2026-05-06 06:36 | -1.12662 | 43.17766 | 35966 ft | 499 kts | 213° |
| 2026-05-06 06:37 | -1.18416 | 43.13870 | 35960 ft | 499 kts | 213° |
| 2026-05-06 06:37 | -1.24166 | 43.09976 | 35959 ft | 499 kts | 213° |
| 2026-05-06 06:38 | -1.29917 | 43.06082 | 35959 ft | 499 kts | 213° |
| 2026-05-06 06:38 | -1.35675 | 43.02183 | 35967 ft | 499 kts | 213° |
| 2026-05-06 06:39 | -1.41396 | 42.98309 | 35959 ft | 499 kts | 213° |
| 2026-05-06 06:39 | -1.47149 | 42.94413 | 35963 ft | 499 kts | 213° |
| 2026-05-06 06:40 | -1.52904 | 42.90516 | 35960 ft | 500 kts | 213° |
| 2026-05-06 06:40 | -1.58658 | 42.86618 | 35962 ft | 500 kts | 213° |
| 2026-05-06 06:41 | -1.64419 | 42.82716 | 35964 ft | 500 kts | 213° |
| 2026-05-06 06:41 | -1.70174 | 42.78817 | 35965 ft | 500 kts | 213° |
| 2026-05-06 06:42 | -1.75905 | 42.74935 | 35961 ft | 500 kts | 213° |
| 2026-05-06 06:42 | -1.81662 | 42.71034 | 35963 ft | 500 kts | 213° |
| 2026-05-06 06:43 | -1.87419 | 42.67132 | 35966 ft | 500 kts | 213° |
| 2026-05-06 06:43 | -1.93178 | 42.63229 | 35964 ft | 500 kts | 213° |
| 2026-05-06 06:44 | -1.98943 | 42.59321 | 35962 ft | 500 kts | 213° |
| 2026-05-06 06:44 | -2.04690 | 42.55385 | 35965 ft | 500 kts | 214° |
| 2026-05-06 06:45 | -2.10364 | 42.51437 | 35964 ft | 500 kts | 214° |
| 2026-05-06 06:45 | -2.16080 | 42.47466 | 35964 ft | 500 kts | 214° |
| 2026-05-06 06:46 | -2.21802 | 42.43501 | 35966 ft | 500 kts | 214° |
| 2026-05-06 06:46 | -2.27460 | 42.39418 | 35966 ft | 501 kts | 216° |
| 2026-05-06 06:47 | -2.33046 | 42.35256 | 35965 ft | 501 kts | 216° |
| 2026-05-06 06:47 | -2.38612 | 42.31118 | 35970 ft | 501 kts | 216° |
| 2026-05-06 06:48 | -2.44215 | 42.26976 | 35971 ft | 501 kts | 215° |
| 2026-05-06 06:48 | -2.49830 | 42.22836 | 35971 ft | 501 kts | 215° |
| 2026-05-06 06:49 | -2.55446 | 42.18696 | 35972 ft | 501 kts | 215° |
| 2026-05-06 06:49 | -2.61063 | 42.14553 | 35969 ft | 501 kts | 215° |
| 2026-05-06 06:50 | -2.66639 | 42.10440 | 35974 ft | 501 kts | 215° |
| 2026-05-06 06:50 | -2.72260 | 42.06292 | 35973 ft | 501 kts | 216° |
| 2026-05-06 06:51 | -2.77888 | 42.02139 | 35980 ft | 501 kts | 215° |
| 2026-05-06 06:51 | -2.83504 | 41.97995 | 35980 ft | 501 kts | 216° |
| 2026-05-06 06:52 | -2.89087 | 41.93873 | 35978 ft | 502 kts | 215° |
| 2026-05-06 06:52 | -2.94702 | 41.89729 | 35976 ft | 502 kts | 216° |
| 2026-05-06 06:53 | -3.00317 | 41.85583 | 35973 ft | 502 kts | 216° |
| 2026-05-06 06:53 | -3.05930 | 41.81438 | 35976 ft | 501 kts | 216° |
| 2026-05-06 06:54 | -3.11538 | 41.77297 | 35982 ft | 501 kts | 215° |
| 2026-05-06 06:54 | -3.17142 | 41.73159 | 35984 ft | 501 kts | 216° |
| 2026-05-06 06:55 | -3.22753 | 41.69013 | 35980 ft | 501 kts | 216° |
| 2026-05-06 06:55 | -3.28369 | 41.64864 | 35978 ft | 501 kts | 216° |
| 2026-05-06 06:56 | -3.33972 | 41.60724 | 35975 ft | 501 kts | 216° |
| 2026-05-06 06:56 | -3.39587 | 41.56574 | 35979 ft | 501 kts | 216° |
| 2026-05-06 06:57 | -3.45196 | 41.52429 | 35982 ft | 501 kts | 216° |
| 2026-05-06 06:57 | -3.50806 | 41.48281 | 35984 ft | 501 kts | 216° |
| 2026-05-06 06:58 | -3.56395 | 41.44149 | 35982 ft | 502 kts | 216° |
| 2026-05-06 06:58 | -3.62009 | 41.39998 | 35980 ft | 502 kts | 216° |
| 2026-05-06 06:59 | -3.67632 | 41.35839 | 35977 ft | 502 kts | 216° |
| 2026-05-06 06:59 | -3.73248 | 41.31684 | 35978 ft | 502 kts | 216° |
| 2026-05-06 07:00 | -3.78865 | 41.27528 | 35984 ft | 502 kts | 215° |
| 2026-05-06 07:00 | -3.84483 | 41.23371 | 35991 ft | 501 kts | 216° |
| 2026-05-06 07:01 | -3.89149 | 41.19918 | 35989 ft | 501 kts | 216° |
| 2026-05-06 07:01 | -3.95673 | 41.15087 | 35987 ft | 501 kts | 216° |
| 2026-05-06 07:02 | -4.01366 | 41.11059 | 35983 ft | 501 kts | 211° |
| 2026-05-06 07:02 | -4.06313 | 41.08049 | 35991 ft | 500 kts | 210° |
| 2026-05-06 07:03 | -4.12286 | 41.04469 | 35986 ft | 500 kts | 210° |
| 2026-05-06 07:03 | -4.18257 | 41.00858 | 35989 ft | 500 kts | 210° |
| 2026-05-06 07:04 | -4.24204 | 40.97235 | 35986 ft | 500 kts | 210° |
| 2026-05-06 07:04 | -4.30141 | 40.93612 | 35984 ft | 500 kts | 210° |
| 2026-05-06 07:05 | -4.36083 | 40.89987 | 35985 ft | 500 kts | 210° |
| 2026-05-06 07:05 | -4.42030 | 40.86360 | 35987 ft | 500 kts | 210° |
| 2026-05-06 07:06 | -4.47934 | 40.82759 | 35990 ft | 499 kts | 211° |
| 2026-05-06 07:06 | -4.53876 | 40.79134 | 35990 ft | 499 kts | 210° |
| 2026-05-06 07:07 | -4.59818 | 40.75508 | 35989 ft | 499 kts | 210° |
| 2026-05-06 07:07 | -4.65752 | 40.71885 | 35990 ft | 499 kts | 210° |
| 2026-05-06 07:08 | -4.71686 | 40.68262 | 35985 ft | 499 kts | 210° |
| 2026-05-06 07:08 | -4.77566 | 40.64670 | 35989 ft | 498 kts | 210° |
| 2026-05-06 07:09 | -4.83422 | 40.60949 | 35989 ft | 498 kts | 216° |
| 2026-05-06 07:09 | -4.88868 | 40.56652 | 36000 ft | 498 kts | 218° |
| 2026-05-06 07:10 | -4.94283 | 40.52310 | 35992 ft | 498 kts | 218° |
| 2026-05-06 07:10 | -4.99726 | 40.48001 | 35990 ft | 498 kts | 217° |
| 2026-05-06 07:11 | -5.05179 | 40.43704 | 35994 ft | 499 kts | 218° |
| 2026-05-06 07:11 | -5.10638 | 40.39399 | 35992 ft | 499 kts | 217° |
| 2026-05-06 07:12 | -5.16293 | 40.35379 | 35992 ft | 498 kts | 212° |
| 2026-05-06 07:12 | -5.22085 | 40.31557 | 35996 ft | 498 kts | 213° |
| 2026-05-06 07:13 | -5.27878 | 40.27732 | 35999 ft | 498 kts | 213° |
| 2026-05-06 07:13 | -5.33620 | 40.23908 | 35993 ft | 499 kts | 213° |
| 2026-05-06 07:14 | -5.39396 | 40.20047 | 35993 ft | 499 kts | 213° |
| 2026-05-06 07:14 | -5.45173 | 40.16184 | 35991 ft | 499 kts | 213° |
| 2026-05-06 07:15 | -5.50951 | 40.12321 | 35994 ft | 499 kts | 213° |
| 2026-05-06 07:15 | -5.56726 | 40.08460 | 35998 ft | 498 kts | 212° |
| 2026-05-06 07:16 | -5.62496 | 40.04602 | 35998 ft | 498 kts | 213° |
| 2026-05-06 07:16 | -5.68265 | 40.00744 | 36006 ft | 497 kts | 213° |
| 2026-05-06 07:17 | -5.74018 | 39.96894 | 36004 ft | 498 kts | 213° |
| 2026-05-06 07:17 | -5.79784 | 39.93035 | 35997 ft | 498 kts | 213° |
| 2026-05-06 07:18 | -5.85558 | 39.89170 | 35998 ft | 498 kts | 213° |
| 2026-05-06 07:18 | -5.91294 | 39.85330 | 35999 ft | 497 kts | 213° |
| 2026-05-06 07:19 | -5.97039 | 39.81482 | 36005 ft | 496 kts | 213° |
| 2026-05-06 07:19 | -6.02773 | 39.77641 | 36008 ft | 495 kts | 213° |
| 2026-05-06 07:20 | -6.08498 | 39.73804 | 36004 ft | 494 kts | 213° |
| 2026-05-06 07:20 | -6.14222 | 39.69967 | 36003 ft | 494 kts | 213° |
| 2026-05-06 07:21 | -6.19906 | 39.66155 | 36007 ft | 494 kts | 213° |
| 2026-05-06 07:21 | -6.25628 | 39.62318 | 36008 ft | 495 kts | 213° |
| 2026-05-06 07:22 | -6.31339 | 39.58454 | 36011 ft | 495 kts | 213° |
| 2026-05-06 07:22 | -6.37041 | 39.54567 | 36011 ft | 495 kts | 214° |
| 2026-05-06 07:23 | -6.42745 | 39.50680 | 36008 ft | 495 kts | 213° |
| 2026-05-06 07:23 | -6.48458 | 39.46791 | 36012 ft | 495 kts | 214° |
| 2026-05-06 07:24 | -6.54154 | 39.42914 | 36007 ft | 495 kts | 214° |
| 2026-05-06 07:24 | -6.59852 | 39.39033 | 36009 ft | 494 kts | 214° |
| 2026-05-06 07:25 | -6.65543 | 39.35157 | 36014 ft | 493 kts | 214° |
| 2026-05-06 07:25 | -6.71227 | 39.31284 | 36021 ft | 493 kts | 214° |
| 2026-05-06 07:26 | -6.76917 | 39.27405 | 36027 ft | 494 kts | 214° |
| 2026-05-06 07:26 | -6.82581 | 39.23543 | 36022 ft | 496 kts | 214° |
| 2026-05-06 07:27 | -6.88429 | 39.19865 | 36020 ft | 496 kts | 207° |
| 2026-05-06 07:27 | -6.94819 | 39.17257 | 36024 ft | 496 kts | 197° |
| 2026-05-06 07:28 | -7.01416 | 39.15199 | 36026 ft | 496 kts | 197° |
| 2026-05-06 07:28 | -7.11325 | 39.12096 | 36026 ft | 496 kts | 196° |
| 2026-05-06 07:29 | -7.17895 | 39.09999 | 36024 ft | 495 kts | 197° |
| 2026-05-06 07:29 | -7.24457 | 39.07895 | 36025 ft | 493 kts | 197° |
| 2026-05-06 07:30 | -7.30996 | 39.05798 | 36024 ft | 493 kts | 196° |
| 2026-05-06 07:30 | -7.37531 | 39.03703 | 36026 ft | 493 kts | 197° |
| 2026-05-06 07:31 | -7.44065 | 39.01609 | 36027 ft | 493 kts | 197° |
| 2026-05-06 07:31 | -7.50576 | 38.99522 | 36027 ft | 493 kts | 197° |
| 2026-05-06 07:32 | -7.57124 | 38.97422 | 36024 ft | 494 kts | 197° |
| 2026-05-06 07:32 | -7.63688 | 38.95316 | 36021 ft | 494 kts | 197° |
| 2026-05-06 07:33 | -7.70202 | 38.93225 | 36029 ft | 494 kts | 197° |
| 2026-05-06 07:33 | -7.76758 | 38.91120 | 36026 ft | 494 kts | 197° |
| 2026-05-06 07:34 | -7.83304 | 38.89018 | 36024 ft | 493 kts | 197° |
| 2026-05-06 07:34 | -7.89849 | 38.86915 | 36025 ft | 493 kts | 197° |
| 2026-05-06 07:35 | -7.96380 | 38.84816 | 36025 ft | 492 kts | 197° |
| 2026-05-06 07:35 | -8.02902 | 38.82720 | 36025 ft | 491 kts | 197° |
| 2026-05-06 07:36 | -8.09417 | 38.80625 | 36023 ft | 491 kts | 197° |
| 2026-05-06 07:36 | -8.15888 | 38.78543 | 36022 ft | 491 kts | 197° |
| 2026-05-06 07:37 | -8.22390 | 38.76450 | 36032 ft | 490 kts | 197° |
| 2026-05-06 07:37 | -8.28901 | 38.74355 | 36026 ft | 490 kts | 197° |
| 2026-05-06 07:38 | -8.35413 | 38.72257 | 36035 ft | 491 kts | 197° |
| 2026-05-06 07:38 | -8.41923 | 38.70159 | 36038 ft | 491 kts | 197° |
| 2026-05-06 07:39 | -8.48407 | 38.68070 | 36037 ft | 492 kts | 197° |
| 2026-05-06 07:39 | -8.54938 | 38.65970 | 36033 ft | 493 kts | 197° |
| 2026-05-06 07:40 | -8.61482 | 38.63868 | 36035 ft | 493 kts | 197° |
| 2026-05-06 07:40 | -8.68025 | 38.61764 | 36034 ft | 493 kts | 197° |
| 2026-05-06 07:41 | -8.74568 | 38.59658 | 36032 ft | 493 kts | 197° |
| 2026-05-06 07:41 | -8.81096 | 38.57556 | 36036 ft | 493 kts | 197° |
| 2026-05-06 07:42 | -8.87584 | 38.55466 | 36037 ft | 492 kts | 196° |
| 2026-05-06 07:42 | -8.94119 | 38.53361 | 36038 ft | 492 kts | 197° |
| 2026-05-06 07:43 | -9.00636 | 38.51260 | 36035 ft | 491 kts | 197° |
| 2026-05-06 07:43 | -9.07145 | 38.49161 | 36036 ft | 491 kts | 197° |
| 2026-05-06 07:44 | -9.13647 | 38.47065 | 36037 ft | 490 kts | 197° |
| 2026-05-06 07:44 | -9.20152 | 38.44966 | 36039 ft | 490 kts | 197° |
| 2026-05-06 07:45 | -9.26641 | 38.42871 | 36038 ft | 490 kts | 197° |
| 2026-05-06 07:45 | -9.33103 | 38.40784 | 36037 ft | 490 kts | 197° |
| 2026-05-06 07:46 | -9.39604 | 38.38683 | 36045 ft | 490 kts | 197° |
| 2026-05-06 07:46 | -9.46118 | 38.36579 | 36045 ft | 491 kts | 197° |
| 2026-05-06 07:47 | -9.52635 | 38.34472 | 36046 ft | 491 kts | 197° |
| 2026-05-06 07:47 | -9.59137 | 38.32368 | 36041 ft | 491 kts | 197° |
| 2026-05-06 07:48 | -9.65646 | 38.30262 | 36040 ft | 491 kts | 197° |
| 2026-05-06 07:48 | -9.71063 | 38.28509 | 36042 ft | 491 kts | 197° |
| 2026-05-06 07:49 | -9.77569 | 38.26402 | 36041 ft | 491 kts | 197° |
| 2026-05-06 07:49 | -9.84070 | 38.24296 | 36046 ft | 490 kts | 198° |
| 2026-05-06 07:50 | -9.90535 | 38.22201 | 36036 ft | 490 kts | 198° |
| 2026-05-06 07:50 | -9.97033 | 38.20094 | 36037 ft | 489 kts | 198° |
| 2026-05-06 07:51 | -10.03508 | 38.17994 | 36039 ft | 488 kts | 198° |
| 2026-05-06 07:51 | -10.09978 | 38.15894 | 36037 ft | 488 kts | 198° |
| 2026-05-06 07:52 | -10.16449 | 38.13794 | 36043 ft | 487 kts | 198° |
| 2026-05-06 07:52 | -10.22869 | 38.11709 | 36039 ft | 487 kts | 198° |
| 2026-05-06 07:53 | -10.29319 | 38.09613 | 36043 ft | 486 kts | 198° |
| 2026-05-06 07:53 | -10.35772 | 38.07515 | 36044 ft | 486 kts | 198° |
| 2026-05-06 07:54 | -10.42217 | 38.05420 | 36048 ft | 486 kts | 198° |
| 2026-05-06 07:54 | -10.48660 | 38.03324 | 36044 ft | 486 kts | 198° |
| 2026-05-06 07:55 | -10.55113 | 38.01223 | 36043 ft | 486 kts | 198° |
| 2026-05-06 07:55 | -10.61548 | 37.99128 | 36044 ft | 485 kts | 198° |
| 2026-05-06 07:56 | -10.67980 | 37.97033 | 36041 ft | 485 kts | 198° |
| 2026-05-06 07:56 | -10.74409 | 37.94938 | 36043 ft | 485 kts | 198° |
| 2026-05-06 07:57 | -10.80799 | 37.92854 | 36040 ft | 485 kts | 198° |
| 2026-05-06 07:57 | -10.87222 | 37.90758 | 36038 ft | 485 kts | 198° |
| 2026-05-06 07:58 | -10.93651 | 37.88661 | 36041 ft | 484 kts | 198° |
| 2026-05-06 07:58 | -11.00079 | 37.86562 | 36041 ft | 484 kts | 198° |
| 2026-05-06 07:59 | -11.06499 | 37.84465 | 36040 ft | 484 kts | 198° |
| 2026-05-06 07:59 | -11.12918 | 37.82367 | 36039 ft | 484 kts | 198° |
| 2026-05-06 08:00 | -11.19302 | 37.80280 | 36043 ft | 484 kts | 198° |
| 2026-05-06 08:00 | -11.25721 | 37.78180 | 36045 ft | 484 kts | 198° |
| 2026-05-06 08:01 | -11.32141 | 37.76079 | 36043 ft | 485 kts | 198° |
| 2026-05-06 08:01 | -11.38578 | 37.73972 | 36037 ft | 485 kts | 199° |
| 2026-05-06 08:02 | -11.44966 | 37.71879 | 36040 ft | 485 kts | 198° |
| 2026-05-06 08:02 | -11.51390 | 37.69773 | 36042 ft | 485 kts | 198° |
| 2026-05-06 08:03 | -11.57821 | 37.67664 | 36049 ft | 485 kts | 199° |
| 2026-05-06 08:03 | -11.64244 | 37.65556 | 36045 ft | 485 kts | 200° |
| 2026-05-06 08:04 | -11.70660 | 37.63389 | 36033 ft | 485 kts | 199° |
| 2026-05-06 08:04 | -11.77059 | 37.61195 | 36050 ft | 484 kts | 200° |
| 2026-05-06 08:05 | -11.83409 | 37.59021 | 36051 ft | 484 kts | 199° |
| 2026-05-06 08:05 | -11.89809 | 37.56836 | 36047 ft | 484 kts | 199° |
| 2026-05-06 08:06 | -11.96212 | 37.54652 | 36046 ft | 485 kts | 199° |
| 2026-05-06 08:06 | -12.02610 | 37.52469 | 36047 ft | 485 kts | 199° |
| 2026-05-06 08:07 | -12.09013 | 37.50281 | 36049 ft | 485 kts | 199° |
| 2026-05-06 08:07 | -12.15426 | 37.48090 | 36050 ft | 485 kts | 199° |
| 2026-05-06 08:08 | -12.21793 | 37.45913 | 36032 ft | 486 kts | 199° |
| 2026-05-06 08:08 | -12.28216 | 37.43715 | 36049 ft | 486 kts | 199° |
| 2026-05-06 08:09 | -12.34634 | 37.41519 | 36051 ft | 486 kts | 199° |
| 2026-05-06 08:09 | -12.41059 | 37.39318 | 36030 ft | 486 kts | 199° |
| 2026-05-06 08:10 | -12.47485 | 37.37116 | 36037 ft | 486 kts | 199° |
| 2026-05-06 08:10 | -12.53861 | 37.34931 | 36051 ft | 486 kts | 199° |
| 2026-05-06 08:11 | -12.60279 | 37.32730 | 36046 ft | 486 kts | 200° |
| 2026-05-06 08:11 | -12.66702 | 37.30525 | 36035 ft | 486 kts | 200° |
| 2026-05-06 08:12 | -12.73119 | 37.28321 | 36040 ft | 486 kts | 200° |
| 2026-05-06 08:12 | -12.79534 | 37.26117 | 36054 ft | 486 kts | 200° |
| 2026-05-06 08:13 | -12.85962 | 37.23929 | 36043 ft | 486 kts | 199° |
| 2026-05-06 08:13 | -12.92405 | 37.21800 | 36042 ft | 487 kts | 199° |
| 2026-05-06 08:14 | -12.98854 | 37.19672 | 36038 ft | 487 kts | 199° |
| 2026-05-06 08:14 | -13.05315 | 37.17531 | 36059 ft | 488 kts | 199° |
| 2026-05-06 08:15 | -13.11731 | 37.15399 | 36047 ft | 488 kts | 199° |
| 2026-05-06 08:15 | -13.18192 | 37.13250 | 36046 ft | 488 kts | 200° |
| 2026-05-06 08:16 | -13.24663 | 37.11096 | 36052 ft | 489 kts | 200° |
| 2026-05-06 08:16 | -13.31135 | 37.08942 | 36055 ft | 489 kts | 200° |
| 2026-05-06 08:17 | -13.37615 | 37.06783 | 36052 ft | 489 kts | 200° |
| 2026-05-06 08:17 | -13.44087 | 37.04627 | 36056 ft | 489 kts | 200° |
| 2026-05-06 08:18 | -13.50563 | 37.02467 | 36056 ft | 489 kts | 200° |
| 2026-05-06 08:18 | -13.56992 | 37.00322 | 36050 ft | 488 kts | 200° |
| 2026-05-06 08:19 | -13.63456 | 36.98163 | 36057 ft | 488 kts | 200° |
| 2026-05-06 08:19 | -13.69931 | 36.96000 | 36049 ft | 489 kts | 200° |
| 2026-05-06 08:20 | -13.76400 | 36.93838 | 36053 ft | 489 kts | 200° |
| 2026-05-06 08:20 | -13.82885 | 36.91669 | 36047 ft | 489 kts | 200° |
| 2026-05-06 08:21 | -13.89351 | 36.89505 | 36045 ft | 489 kts | 200° |
| 2026-05-06 08:21 | -13.95830 | 36.87335 | 36048 ft | 489 kts | 200° |
| 2026-05-06 08:22 | -14.02267 | 36.85179 | 36041 ft | 489 kts | 200° |
| 2026-05-06 08:22 | -14.08756 | 36.83031 | 36046 ft | 489 kts | 200° |
| 2026-05-06 08:23 | -14.15248 | 36.80901 | 36048 ft | 489 kts | 200° |
| 2026-05-06 08:23 | -14.21723 | 36.78773 | 36047 ft | 489 kts | 200° |
| 2026-05-06 08:24 | -14.28208 | 36.76637 | 36056 ft | 489 kts | 200° |
| 2026-05-06 08:24 | -14.34690 | 36.74498 | 36056 ft | 488 kts | 200° |
| 2026-05-06 08:25 | -14.41158 | 36.72362 | 36059 ft | 488 kts | 200° |
| 2026-05-06 08:25 | -14.47594 | 36.70236 | 36058 ft | 488 kts | 200° |
| 2026-05-06 08:26 | -14.54070 | 36.68096 | 36059 ft | 488 kts | 200° |
| 2026-05-06 08:26 | -14.60535 | 36.65958 | 36060 ft | 488 kts | 200° |
| 2026-05-06 08:27 | -14.67012 | 36.63815 | 36063 ft | 487 kts | 200° |
| 2026-05-06 08:27 | -14.73472 | 36.61676 | 36067 ft | 487 kts | 201° |
| 2026-05-06 08:28 | -14.79922 | 36.59538 | 36066 ft | 487 kts | 201° |
| 2026-05-06 08:28 | -14.86378 | 36.57398 | 36067 ft | 487 kts | 201° |
| 2026-05-06 08:29 | -14.92795 | 36.55268 | 36069 ft | 487 kts | 201° |
| 2026-05-06 08:29 | -14.99245 | 36.53128 | 36070 ft | 487 kts | 201° |
| 2026-05-06 08:30 | -15.05692 | 36.50986 | 36074 ft | 486 kts | 201° |
| 2026-05-06 08:30 | -15.12139 | 36.48843 | 36075 ft | 487 kts | 201° |
| 2026-05-06 08:31 | -15.18591 | 36.46697 | 36077 ft | 487 kts | 201° |
| 2026-05-06 08:31 | -15.25047 | 36.44548 | 36080 ft | 487 kts | 201° |
| 2026-05-06 08:32 | -15.31512 | 36.42396 | 36080 ft | 488 kts | 201° |
| 2026-05-06 08:32 | -15.37967 | 36.40244 | 36082 ft | 488 kts | 201° |
| 2026-05-06 08:33 | -15.44438 | 36.38086 | 36081 ft | 488 kts | 201° |
| 2026-05-06 08:33 | -15.50868 | 36.35941 | 36074 ft | 488 kts | 201° |
| 2026-05-06 08:34 | -15.60572 | 36.32700 | 36081 ft | 488 kts | 201° |
| 2026-05-06 08:35 | -15.67029 | 36.30542 | 36076 ft | 488 kts | 201° |
| 2026-05-06 08:35 | -15.72411 | 36.28742 | 36074 ft | 488 kts | 201° |
| 2026-05-06 08:36 | -15.79932 | 36.26224 | 36072 ft | 488 kts | 201° |
| 2026-05-06 08:36 | -15.85339 | 36.24414 | 36070 ft | 488 kts | 201° |
| 2026-05-06 08:37 | -15.91799 | 36.22249 | 36068 ft | 488 kts | 201° |
| 2026-05-06 08:37 | -15.98220 | 36.20095 | 36053 ft | 487 kts | 201° |
| 2026-05-06 08:38 | -16.04673 | 36.17903 | 36051 ft | 487 kts | 201° |
| 2026-05-06 08:38 | -16.11126 | 36.15688 | 36048 ft | 487 kts | 202° |
| 2026-05-06 08:39 | -16.17565 | 36.13476 | 36046 ft | 487 kts | 202° |
| 2026-05-06 08:39 | -16.23997 | 36.11268 | 36037 ft | 487 kts | 201° |
| 2026-05-06 08:40 | -16.30407 | 36.09069 | 36032 ft | 487 kts | 201° |
| 2026-05-06 08:40 | -16.36842 | 36.06859 | 36029 ft | 487 kts | 201° |
| 2026-05-06 08:41 | -16.43286 | 36.04645 | 36030 ft | 487 kts | 201° |
| 2026-05-06 08:41 | -16.49731 | 36.02429 | 36016 ft | 487 kts | 201° |
| 2026-05-06 08:42 | -16.56167 | 36.00214 | 36024 ft | 487 kts | 201° |
| 2026-05-06 08:42 | -16.62600 | 35.97998 | 36008 ft | 487 kts | 201° |
| 2026-05-06 08:43 | -16.69034 | 35.95781 | 36014 ft | 486 kts | 201° |
| 2026-05-06 08:43 | -16.75424 | 35.93578 | 36004 ft | 486 kts | 201° |
| 2026-05-06 08:44 | -16.81892 | 35.91344 | 36363 ft | 490 kts | 201° |
| 2026-05-06 08:44 | -16.85122 | 35.90230 | 36781 ft | 487 kts | 202° |
| 2026-05-06 08:44 | -16.88334 | 35.89121 | 37209 ft | 485 kts | 202° |
| 2026-05-06 08:44 | -16.91531 | 35.88018 | 37610 ft | 483 kts | 202° |
| 2026-05-06 08:45 | -16.94686 | 35.86927 | 37906 ft | 483 kts | 202° |
| 2026-05-06 08:45 | -17.01133 | 35.84695 | 37993 ft | 489 kts | 202° |
| 2026-05-06 08:46 | -17.07588 | 35.82462 | 37977 ft | 484 kts | 202° |
| 2026-05-06 08:46 | -17.13953 | 35.80259 | 37994 ft | 481 kts | 202° |
| 2026-05-06 08:47 | -17.20297 | 35.78060 | 37987 ft | 480 kts | 202° |
| 2026-05-06 08:47 | -17.26641 | 35.75858 | 37987 ft | 481 kts | 202° |
| 2026-05-06 08:48 | -17.32960 | 35.73664 | 37981 ft | 482 kts | 202° |
| 2026-05-06 08:48 | -17.39330 | 35.71451 | 37984 ft | 483 kts | 202° |
| 2026-05-06 08:49 | -17.45719 | 35.69230 | 37983 ft | 485 kts | 202° |
| 2026-05-06 08:49 | -17.52138 | 35.66996 | 37980 ft | 486 kts | 202° |
| 2026-05-06 08:50 | -17.58571 | 35.64757 | 37963 ft | 488 kts | 202° |
| 2026-05-06 08:50 | -17.65017 | 35.62510 | 37962 ft | 489 kts | 202° |
| 2026-05-06 08:51 | -17.71437 | 35.60271 | 37955 ft | 489 kts | 202° |
| 2026-05-06 08:51 | -17.77897 | 35.58016 | 37954 ft | 489 kts | 202° |
| 2026-05-06 08:52 | -17.84367 | 35.55755 | 37945 ft | 489 kts | 202° |
| 2026-05-06 08:52 | -17.90835 | 35.53493 | 37944 ft | 489 kts | 202° |
| 2026-05-06 08:53 | -17.97290 | 35.51235 | 37955 ft | 489 kts | 202° |
| 2026-05-06 08:53 | -18.03738 | 35.48976 | 37954 ft | 488 kts | 202° |
| 2026-05-06 08:54 | -18.10199 | 35.46712 | 37950 ft | 488 kts | 203° |
| 2026-05-06 08:54 | -18.16602 | 35.44466 | 37942 ft | 488 kts | 203° |
| 2026-05-06 08:55 | -18.23047 | 35.42203 | 37955 ft | 487 kts | 203° |
| 2026-05-06 08:55 | -18.29481 | 35.39943 | 37955 ft | 487 kts | 203° |
| 2026-05-06 08:56 | -18.35912 | 35.37682 | 37941 ft | 487 kts | 203° |
| 2026-05-06 08:56 | -18.42331 | 35.35423 | 37952 ft | 487 kts | 203° |
| 2026-05-06 08:57 | -18.48728 | 35.33170 | 37955 ft | 487 kts | 203° |
| 2026-05-06 08:57 | -18.55161 | 35.30902 | 37949 ft | 487 kts | 203° |
| 2026-05-06 08:58 | -18.61597 | 35.28633 | 37947 ft | 487 kts | 203° |
| 2026-05-06 08:58 | -18.68029 | 35.26368 | 37951 ft | 487 kts | 203° |
| 2026-05-06 08:59 | -18.74424 | 35.24116 | 37939 ft | 488 kts | 203° |
| 2026-05-06 08:59 | -18.80866 | 35.21844 | 37949 ft | 488 kts | 203° |
| 2026-05-06 09:00 | -18.87313 | 35.19568 | 37948 ft | 489 kts | 203° |
| 2026-05-06 09:00 | -18.93771 | 35.17286 | 37940 ft | 489 kts | 203° |
| 2026-05-06 09:01 | -19.00226 | 35.15003 | 37934 ft | 489 kts | 203° |
| 2026-05-06 09:01 | -19.06694 | 35.12715 | 37940 ft | 490 kts | 203° |
| 2026-05-06 09:02 | -19.13157 | 35.10425 | 37940 ft | 490 kts | 203° |
| 2026-05-06 09:02 | -19.19629 | 35.08132 | 37936 ft | 490 kts | 203° |
| 2026-05-06 09:03 | -19.26058 | 35.05851 | 37941 ft | 490 kts | 203° |
| 2026-05-06 09:03 | -19.32559 | 35.03542 | 37932 ft | 490 kts | 203° |
| 2026-05-06 09:04 | -19.38989 | 35.01257 | 37933 ft | 490 kts | 203° |
| 2026-05-06 09:04 | -19.45461 | 34.98955 | 37940 ft | 490 kts | 204° |
| 2026-05-06 09:05 | -19.51924 | 34.96654 | 37932 ft | 490 kts | 204° |
| 2026-05-06 09:05 | -19.58380 | 34.94354 | 37938 ft | 490 kts | 204° |
| 2026-05-06 09:06 | -19.64850 | 34.92047 | 37930 ft | 490 kts | 204° |
| 2026-05-06 09:06 | -19.71310 | 34.89741 | 37913 ft | 490 kts | 204° |
| 2026-05-06 09:07 | -19.77591 | 34.87053 | 37907 ft | 482 kts | 214° |
| 2026-05-06 09:07 | -19.83058 | 34.83146 | 37911 ft | 472 kts | 226° |
| 2026-05-06 09:08 | -19.87952 | 34.78519 | 37933 ft | 471 kts | 227° |
| 2026-05-06 09:08 | -19.92825 | 34.73856 | 37924 ft | 471 kts | 227° |
| 2026-05-06 09:09 | -19.97733 | 34.69199 | 37925 ft | 472 kts | 227° |
| 2026-05-06 09:09 | -20.02643 | 34.64566 | 37924 ft | 472 kts | 227° |
| 2026-05-06 09:10 | -20.07533 | 34.59955 | 37931 ft | 472 kts | 227° |
| 2026-05-06 09:10 | -20.12450 | 34.55314 | 37934 ft | 472 kts | 227° |
| 2026-05-06 09:11 | -20.17371 | 34.50663 | 37922 ft | 473 kts | 227° |
| 2026-05-06 09:11 | -20.22285 | 34.46015 | 37948 ft | 473 kts | 227° |
| 2026-05-06 09:12 | -20.27203 | 34.41358 | 37932 ft | 473 kts | 227° |
| 2026-05-06 09:12 | -20.32127 | 34.36691 | 37923 ft | 473 kts | 227° |
| 2026-05-06 09:13 | -20.37046 | 34.32026 | 37925 ft | 473 kts | 227° |
| 2026-05-06 09:13 | -20.41941 | 34.27379 | 37926 ft | 473 kts | 227° |
| 2026-05-06 09:14 | -20.46856 | 34.22708 | 37914 ft | 473 kts | 227° |
| 2026-05-06 09:14 | -20.51770 | 34.18034 | 37920 ft | 473 kts | 228° |
| 2026-05-06 09:15 | -20.56683 | 34.13357 | 37919 ft | 473 kts | 228° |
| 2026-05-06 09:15 | -20.61609 | 34.08663 | 37917 ft | 474 kts | 228° |
| 2026-05-06 09:16 | -20.66526 | 34.03973 | 37916 ft | 474 kts | 228° |
| 2026-05-06 09:16 | -20.71416 | 33.99306 | 37914 ft | 474 kts | 227° |
| 2026-05-06 09:17 | -20.76491 | 33.94769 | 37929 ft | 477 kts | 225° |
| 2026-05-06 09:17 | -20.81666 | 33.90330 | 37910 ft | 477 kts | 225° |
| 2026-05-06 09:18 | -20.86829 | 33.85869 | 37912 ft | 476 kts | 226° |
| 2026-05-06 09:18 | -20.91963 | 33.81388 | 37929 ft | 476 kts | 226° |
| 2026-05-06 09:19 | -20.97094 | 33.76889 | 37919 ft | 476 kts | 226° |
| 2026-05-06 09:19 | -21.02221 | 33.72390 | 37913 ft | 477 kts | 226° |
| 2026-05-06 09:20 | -21.07325 | 33.67909 | 37921 ft | 476 kts | 226° |
| 2026-05-06 09:20 | -21.12449 | 33.63407 | 37908 ft | 476 kts | 226° |
| 2026-05-06 09:21 | -21.17560 | 33.58912 | 37904 ft | 475 kts | 226° |
| 2026-05-06 09:21 | -21.22667 | 33.54417 | 37905 ft | 475 kts | 226° |
| 2026-05-06 09:22 | -21.27766 | 33.49925 | 37924 ft | 474 kts | 227° |
| 2026-05-06 09:22 | -21.32857 | 33.45435 | 37902 ft | 473 kts | 227° |
| 2026-05-06 09:23 | -21.37938 | 33.40950 | 37904 ft | 472 kts | 227° |
| 2026-05-06 09:23 | -21.43011 | 33.36468 | 37901 ft | 472 kts | 227° |
| 2026-05-06 09:24 | -21.48058 | 33.32004 | 37897 ft | 472 kts | 227° |
| 2026-05-06 09:24 | -21.53130 | 33.27514 | 37906 ft | 472 kts | 227° |
| 2026-05-06 09:25 | -21.57343 | 33.23781 | 37893 ft | 472 kts | 227° |
| 2026-05-06 09:25 | -21.62440 | 33.19261 | 37918 ft | 472 kts | 227° |
| 2026-05-06 09:26 | -21.67474 | 33.14793 | 37913 ft | 472 kts | 227° |
| 2026-05-06 09:26 | -21.72535 | 33.10295 | 37904 ft | 472 kts | 227° |
| 2026-05-06 09:27 | -21.77598 | 33.05794 | 37899 ft | 472 kts | 227° |
| 2026-05-06 09:27 | -21.82638 | 33.01258 | 37894 ft | 471 kts | 227° |
| 2026-05-06 09:28 | -21.87652 | 32.96705 | 37902 ft | 472 kts | 227° |
| 2026-05-06 09:28 | -21.92675 | 32.92146 | 37898 ft | 472 kts | 227° |
| 2026-05-06 09:29 | -21.97662 | 32.87622 | 37913 ft | 472 kts | 228° |
| 2026-05-06 09:29 | -22.02691 | 32.83055 | 37897 ft | 472 kts | 228° |
| 2026-05-06 09:30 | -22.07734 | 32.78509 | 37892 ft | 472 kts | 227° |
| 2026-05-06 09:30 | -22.12807 | 32.74013 | 37894 ft | 472 kts | 227° |
| 2026-05-06 09:31 | -22.17879 | 32.69516 | 37886 ft | 471 kts | 227° |
| 2026-05-06 09:31 | -22.22939 | 32.65014 | 37883 ft | 471 kts | 227° |
| 2026-05-06 09:32 | -22.27979 | 32.60520 | 37888 ft | 470 kts | 228° |
| 2026-05-06 09:32 | -22.32997 | 32.56039 | 37889 ft | 471 kts | 228° |
| 2026-05-06 09:33 | -22.38052 | 32.51522 | 37882 ft | 471 kts | 228° |
| 2026-05-06 09:33 | -22.43095 | 32.47012 | 37879 ft | 471 kts | 228° |
| 2026-05-06 09:34 | -22.48148 | 32.42489 | 37884 ft | 471 kts | 228° |
| 2026-05-06 09:34 | -22.53172 | 32.37987 | 37879 ft | 471 kts | 228° |
| 2026-05-06 09:35 | -22.58212 | 32.33466 | 37881 ft | 471 kts | 229° |
| 2026-05-06 09:35 | -22.63261 | 32.28932 | 37879 ft | 471 kts | 229° |
| 2026-05-06 09:36 | -22.68298 | 32.24406 | 37886 ft | 471 kts | 229° |
| 2026-05-06 09:36 | -22.73337 | 32.19873 | 37882 ft | 471 kts | 229° |
| 2026-05-06 09:37 | -22.78368 | 32.15342 | 37870 ft | 470 kts | 229° |
| 2026-05-06 09:37 | -22.83390 | 32.10816 | 37874 ft | 469 kts | 229° |
| 2026-05-06 09:38 | -22.88402 | 32.06292 | 37902 ft | 468 kts | 229° |
| 2026-05-06 09:38 | -22.93374 | 32.01799 | 37878 ft | 468 kts | 229° |
| 2026-05-06 09:39 | -22.98387 | 31.97287 | 37876 ft | 468 kts | 228° |
| 2026-05-06 09:39 | -23.03479 | 31.92858 | 37881 ft | 469 kts | 228° |
| 2026-05-06 09:40 | -23.08581 | 31.88454 | 37878 ft | 468 kts | 228° |
| 2026-05-06 09:40 | -23.16211 | 31.81822 | 37882 ft | 468 kts | 228° |
| 2026-05-06 09:41 | -23.21249 | 31.77426 | 37897 ft | 468 kts | 228° |
| 2026-05-06 09:41 | -23.26330 | 31.72990 | 37891 ft | 468 kts | 228° |
| 2026-05-06 09:42 | -23.31409 | 31.68552 | 37893 ft | 468 kts | 228° |
| 2026-05-06 09:42 | -23.36487 | 31.64109 | 37900 ft | 469 kts | 228° |
| 2026-05-06 09:43 | -23.41564 | 31.59656 | 37895 ft | 467 kts | 229° |
| 2026-05-06 09:43 | -23.46010 | 31.54666 | 37907 ft | 453 kts | 240° |
| 2026-05-06 09:44 | -23.49530 | 31.49083 | 37916 ft | 444 kts | 247° |
| 2026-05-06 09:44 | -23.52713 | 31.43325 | 37909 ft | 443 kts | 247° |
| 2026-05-06 09:45 | -23.55889 | 31.37565 | 37912 ft | 443 kts | 247° |
| 2026-05-06 09:45 | -23.59082 | 31.31813 | 37913 ft | 444 kts | 247° |
| 2026-05-06 09:46 | -23.62283 | 31.26062 | 37922 ft | 444 kts | 247° |
| 2026-05-06 09:46 | -23.65484 | 31.20312 | 37919 ft | 443 kts | 247° |
| 2026-05-06 09:47 | -23.68661 | 31.14596 | 37923 ft | 443 kts | 247° |
| 2026-05-06 09:47 | -23.71851 | 31.08851 | 37926 ft | 442 kts | 247° |
| 2026-05-06 09:48 | -23.75039 | 31.03101 | 37947 ft | 442 kts | 248° |
| 2026-05-06 09:48 | -23.78224 | 30.97348 | 37936 ft | 443 kts | 248° |
| 2026-05-06 09:49 | -23.81409 | 30.91590 | 37939 ft | 443 kts | 248° |
| 2026-05-06 09:49 | -23.84586 | 30.85842 | 37933 ft | 441 kts | 248° |
| 2026-05-06 09:50 | -23.87729 | 30.80149 | 37937 ft | 439 kts | 248° |
| 2026-05-06 09:50 | -23.90880 | 30.74433 | 37939 ft | 439 kts | 248° |
| 2026-05-06 09:51 | -23.94030 | 30.68709 | 37942 ft | 439 kts | 248° |
| 2026-05-06 09:51 | -23.97172 | 30.62996 | 37942 ft | 439 kts | 248° |
| 2026-05-06 09:52 | -24.00318 | 30.57268 | 37945 ft | 439 kts | 248° |
| 2026-05-06 09:52 | -24.03457 | 30.51546 | 37955 ft | 439 kts | 248° |
| 2026-05-06 09:53 | -24.06603 | 30.45804 | 37962 ft | 439 kts | 248° |
| 2026-05-06 09:53 | -24.09742 | 30.40072 | 37959 ft | 439 kts | 248° |
| 2026-05-06 09:54 | -24.12863 | 30.34363 | 37959 ft | 440 kts | 248° |
| 2026-05-06 09:54 | -24.16006 | 30.28608 | 37958 ft | 439 kts | 248° |
| 2026-05-06 09:55 | -24.19130 | 30.22883 | 37974 ft | 438 kts | 248° |
| 2026-05-06 09:55 | -24.22250 | 30.17159 | 37994 ft | 438 kts | 248° |
| 2026-05-06 09:56 | -24.25364 | 30.11432 | 38005 ft | 437 kts | 249° |
| 2026-05-06 09:56 | -24.28474 | 30.05710 | 37999 ft | 436 kts | 249° |
| 2026-05-06 09:57 | -24.31570 | 30.00010 | 37997 ft | 434 kts | 249° |
| 2026-05-06 09:57 | -24.34630 | 29.94366 | 38009 ft | 432 kts | 249° |
| 2026-05-06 09:58 | -24.37701 | 29.88694 | 38022 ft | 432 kts | 249° |
| 2026-05-06 09:58 | -24.40774 | 29.83015 | 38013 ft | 432 kts | 249° |
| 2026-05-06 09:59 | -24.43876 | 29.77352 | 38022 ft | 433 kts | 248° |
| 2026-05-06 09:59 | -24.46988 | 29.71682 | 38020 ft | 434 kts | 248° |
| 2026-05-06 10:00 | -24.50100 | 29.66004 | 38018 ft | 434 kts | 248° |
| 2026-05-06 10:00 | -24.53229 | 29.60369 | 38022 ft | 435 kts | 248° |
| 2026-05-06 10:01 | -24.56385 | 29.54680 | 38026 ft | 436 kts | 248° |
| 2026-05-06 10:01 | -24.59542 | 29.48978 | 38028 ft | 437 kts | 248° |
| 2026-05-06 10:02 | -24.62700 | 29.43278 | 38028 ft | 436 kts | 248° |
| 2026-05-06 10:02 | -24.65858 | 29.37572 | 38050 ft | 437 kts | 248° |
| 2026-05-06 10:03 | -24.69013 | 29.31861 | 38031 ft | 437 kts | 248° |
| 2026-05-06 10:03 | -24.72165 | 29.26148 | 38023 ft | 437 kts | 248° |
| 2026-05-06 10:04 | -24.75295 | 29.20470 | 38020 ft | 436 kts | 249° |
| 2026-05-06 10:04 | -24.78437 | 29.14763 | 38019 ft | 434 kts | 249° |
| 2026-05-06 10:05 | -24.81562 | 29.09079 | 37926 ft | 434 kts | 249° |
| 2026-05-06 10:05 | -24.83139 | 29.06196 | 37177 ft | 442 kts | 249° |
| 2026-05-06 10:05 | -24.84721 | 29.03319 | 36709 ft | 435 kts | 249° |
| 2026-05-06 10:06 | -24.86278 | 29.00490 | 36174 ft | 430 kts | 249° |
| 2026-05-06 10:06 | -24.87818 | 28.97686 | 35669 ft | 425 kts | 249° |
| 2026-05-06 10:06 | -24.89339 | 28.94909 | 35166 ft | 421 kts | 249° |
| 2026-05-06 10:06 | -24.90848 | 28.92154 | 34645 ft | 419 kts | 249° |
| 2026-05-06 10:07 | -24.92348 | 28.89459 | 34121 ft | 417 kts | 246° |
| 2026-05-06 10:07 | -24.94344 | 28.87048 | 33532 ft | 439 kts | 231° |
| 2026-05-06 10:07 | -24.96922 | 28.85137 | 33043 ft | 452 kts | 220° |
| 2026-05-06 10:07 | -24.99879 | 28.83803 | 32578 ft | 469 kts | 205° |
| 2026-05-06 10:08 | -25.03104 | 28.83082 | 32121 ft | 471 kts | 201° |
| 2026-05-06 10:08 | -25.06327 | 28.82475 | 31701 ft | 469 kts | 200° |
| 2026-05-06 10:08 | -25.09534 | 28.81885 | 31231 ft | 466 kts | 201° |
| 2026-05-06 10:08 | -25.12721 | 28.81277 | 30777 ft | 463 kts | 201° |
| 2026-05-06 10:09 | -25.15886 | 28.80646 | 30330 ft | 460 kts | 201° |
| 2026-05-06 10:09 | -25.19016 | 28.79999 | 29844 ft | 457 kts | 202° |
| 2026-05-06 10:09 | -25.22134 | 28.79343 | 29325 ft | 455 kts | 202° |
| 2026-05-06 10:09 | -25.25233 | 28.78686 | 28864 ft | 452 kts | 202° |
| 2026-05-06 10:10 | -25.28307 | 28.78035 | 28435 ft | 448 kts | 201° |
| 2026-05-06 10:10 | -25.31360 | 28.77388 | 27961 ft | 445 kts | 201° |
| 2026-05-06 10:10 | -25.34392 | 28.76746 | 27554 ft | 442 kts | 201° |
| 2026-05-06 10:10 | -25.37403 | 28.76108 | 27112 ft | 440 kts | 201° |
| 2026-05-06 10:11 | -25.40364 | 28.75482 | 26768 ft | 435 kts | 201° |
| 2026-05-06 10:11 | -25.43309 | 28.74864 | 26602 ft | 426 kts | 201° |
| 2026-05-06 10:11 | -25.46135 | 28.74154 | 26390 ft | 404 kts | 211° |
| 2026-05-06 10:11 | -25.48506 | 28.72769 | 25986 ft | 372 kts | 229° |
| 2026-05-06 10:12 | -25.50597 | 28.71113 | 25646 ft | 369 kts | 228° |
| 2026-05-06 10:12 | -25.52705 | 28.69492 | 25256 ft | 369 kts | 227° |
| 2026-05-06 10:12 | -25.54834 | 28.67895 | 24883 ft | 369 kts | 226° |
| 2026-05-06 10:12 | -25.56971 | 28.66313 | 24528 ft | 369 kts | 226° |
| 2026-05-06 10:13 | -25.58381 | 28.65272 | 24249 ft | 369 kts | 226° |
| 2026-05-06 10:13 | -25.60521 | 28.63692 | 23843 ft | 369 kts | 225° |
| 2026-05-06 10:13 | -25.62655 | 28.62116 | 23417 ft | 369 kts | 225° |
| 2026-05-06 10:13 | -25.64791 | 28.60539 | 23014 ft | 368 kts | 226° |
| 2026-05-06 10:14 | -25.66921 | 28.58965 | 22598 ft | 367 kts | 226° |
| 2026-05-06 10:14 | -25.69041 | 28.57395 | 22192 ft | 366 kts | 226° |
| 2026-05-06 10:14 | -25.71155 | 28.55830 | 21792 ft | 364 kts | 226° |
| 2026-05-06 10:14 | -25.73259 | 28.54272 | 21405 ft | 363 kts | 226° |
| 2026-05-06 10:15 | -25.75359 | 28.52727 | 21023 ft | 362 kts | 225° |
| 2026-05-06 10:15 | -25.77714 | 28.51582 | 20637 ft | 380 kts | 206° |
| 2026-05-06 10:15 | -25.80311 | 28.50944 | 20299 ft | 381 kts | 204° |
| 2026-05-06 10:15 | -25.82906 | 28.50343 | 19919 ft | 381 kts | 204° |
| 2026-05-06 10:16 | -25.85499 | 28.49735 | 19554 ft | 380 kts | 204° |
| 2026-05-06 10:16 | -25.88086 | 28.49111 | 19175 ft | 381 kts | 204° |
| 2026-05-06 10:16 | -25.90675 | 28.48471 | 18791 ft | 381 kts | 205° |
| 2026-05-06 10:16 | -25.93266 | 28.47822 | 18389 ft | 382 kts | 205° |
| 2026-05-06 10:17 | -25.95836 | 28.47173 | 17975 ft | 383 kts | 205° |
| 2026-05-06 10:17 | -25.98432 | 28.46515 | 17554 ft | 382 kts | 204° |
| 2026-05-06 10:17 | -26.01023 | 28.45857 | 17158 ft | 381 kts | 204° |
| 2026-05-06 10:17 | -26.03606 | 28.45202 | 16762 ft | 380 kts | 204° |
| 2026-05-06 10:18 | -26.06176 | 28.44550 | 16409 ft | 377 kts | 204° |
| 2026-05-06 10:18 | -26.08726 | 28.43902 | 16059 ft | 375 kts | 204° |
| 2026-05-06 10:18 | -26.11267 | 28.43255 | 15742 ft | 372 kts | 203° |
| 2026-05-06 10:18 | -26.13737 | 28.42630 | 15542 ft | 363 kts | 203° |
| 2026-05-06 10:19 | -26.16165 | 28.42019 | 15098 ft | 351 kts | 203° |
| 2026-05-06 10:19 | -26.18510 | 28.41426 | 14494 ft | 338 kts | 203° |
| 2026-05-06 10:19 | -26.20739 | 28.40865 | 14100 ft | 319 kts | 204° |
| 2026-05-06 10:19 | -26.22900 | 28.40310 | 13811 ft | 318 kts | 202° |
| 2026-05-06 10:20 | -26.25049 | 28.39752 | 13598 ft | 314 kts | 202° |
| 2026-05-06 10:20 | -26.27148 | 28.39215 | 13435 ft | 305 kts | 202° |
| 2026-05-06 10:20 | -26.29180 | 28.38699 | 13291 ft | 294 kts | 202° |
| 2026-05-06 10:20 | -26.31136 | 28.38202 | 13162 ft | 282 kts | 202° |
| 2026-05-06 10:21 | -26.33011 | 28.37726 | 13048 ft | 270 kts | 202° |
| 2026-05-06 10:21 | -26.34777 | 28.37164 | 12684 ft | 255 kts | 218° |
| 2026-05-06 10:21 | -26.35994 | 28.35943 | 12351 ft | 224 kts | 248° |
| 2026-05-06 10:21 | -26.36581 | 28.34388 | 12049 ft | 215 kts | 261° |
| 2026-05-06 10:22 | -26.36794 | 28.32773 | 11748 ft | 207 kts | 272° |
| 2026-05-06 10:22 | -26.36822 | 28.31194 | 11461 ft | 200 kts | 273° |
| 2026-05-06 10:22 | -26.36837 | 28.29671 | 11253 ft | 196 kts | 273° |
| 2026-05-06 10:22 | -26.36855 | 28.28154 | 10959 ft | 193 kts | 273° |
| 2026-05-06 10:23 | -26.36877 | 28.26682 | 10689 ft | 187 kts | 272° |
| 2026-05-06 10:23 | -26.36900 | 28.25268 | 10384 ft | 181 kts | 272° |
| 2026-05-06 10:23 | -26.36924 | 28.23870 | 10145 ft | 179 kts | 272° |
| 2026-05-06 10:23 | -26.36948 | 28.22486 | 9891 ft | 177 kts | 271° |
| 2026-05-06 10:24 | -26.36783 | 28.21183 | 9617 ft | 166 kts | 295° |
| 2026-05-06 10:24 | -26.36077 | 28.20177 | 9410 ft | 169 kts | 323° |
| 2026-05-06 10:24 | -26.34935 | 28.19897 | 9292 ft | 173 kts | 354° |
| 2026-05-06 10:24 | -26.33748 | 28.19953 | 9052 ft | 168 kts | 356° |
| 2026-05-06 10:25 | -26.32581 | 28.20110 | 8834 ft | 171 kts | 1° |
| 2026-05-06 10:25 | -26.31413 | 28.20306 | 8576 ft | 169 kts | 2° |
| 2026-05-06 10:25 | -26.30265 | 28.20561 | 8352 ft | 168 kts | 6° |
| 2026-05-06 10:25 | -26.29132 | 28.20882 | 8135 ft | 172 kts | 8° |
| 2026-05-06 10:26 | -26.27972 | 28.21235 | 7911 ft | 173 kts | 9° |
| 2026-05-06 10:26 | -26.26820 | 28.21594 | 7667 ft | 171 kts | 9° |
| 2026-05-06 10:26 | -26.25690 | 28.21947 | 7437 ft | 167 kts | 9° |
| 2026-05-06 10:26 | -26.24573 | 28.22295 | 7200 ft | 167 kts | 10° |
| 2026-05-06 10:27 | -26.23438 | 28.22646 | 7021 ft | 171 kts | 10° |
| 2026-05-06 10:27 | -26.22288 | 28.23005 | 6768 ft | 171 kts | 8° |
| 2026-05-06 10:27 | -26.21163 | 28.23356 | 6557 ft | 166 kts | 9° |
| 2026-05-06 10:27 | -26.20044 | 28.23704 | 6328 ft | 168 kts | 11° |
| 2026-05-06 10:28 | -26.18917 | 28.24054 | 6077 ft | 168 kts | 12° |
| 2026-05-06 10:28 | -26.17791 | 28.24410 | 5844 ft | 169 kts | 12° |
| 2026-05-06 10:28 | -26.16654 | 28.24764 | 5578 ft | 167 kts | 8° |
| 2026-05-06 10:28 | -26.15590 | 28.25084 | 5522 ft | 145 kts | 10° |
| 2026-05-06 10:29 | -26.14801 | 28.25330 | 5510 ft | 93 kts | 16° |
| 2026-05-06 10:29 | -26.14404 | 28.25452 | 5512 ft | 40 kts | 14° |
| 2026-05-06 10:29 | -26.14185 | 28.25473 | 5516 ft | 21 kts | 352° |
| 2026-05-06 10:29 | -26.14079 | 28.25453 | 5515 ft | 8 kts | 350° |
| 2026-05-06 10:30 | -26.14037 | 28.25445 | 5515 ft | 0 kts | 349° |
| 2026-05-06 10:31 | -26.14019 | 28.25441 | 5515 ft | 6 kts | 347° |
| 2026-05-06 10:31 | -26.13993 | 28.25388 | 5516 ft | 11 kts | 256° |
| 2026-05-06 10:31 | -26.14074 | 28.25345 | 5516 ft | 17 kts | 191° |
| 2026-05-06 10:31 | -26.14204 | 28.25308 | 5514 ft | 20 kts | 195° |
| 2026-05-06 10:32 | -26.14325 | 28.25270 | 5514 ft | 17 kts | 195° |
| 2026-05-06 10:32 | -26.14426 | 28.25221 | 5515 ft | 16 kts | 237° |
| 2026-05-06 10:32 | -26.14385 | 28.25114 | 5521 ft | 16 kts | 316° |
| 2026-05-06 10:32 | -26.14304 | 28.25028 | 5535 ft | 16 kts | 316° |
| 2026-05-06 10:33 | -26.14224 | 28.24940 | 5536 ft | 16 kts | 314° |
| 2026-05-06 10:33 | -26.14144 | 28.24853 | 5536 ft | 16 kts | 316° |
| 2026-05-06 10:33 | -26.14063 | 28.24766 | 5536 ft | 16 kts | 315° |
| 2026-05-06 10:33 | -26.13983 | 28.24678 | 5536 ft | 16 kts | 316° |
| 2026-05-06 10:34 | -26.13902 | 28.24592 | 5536 ft | 16 kts | 315° |
| 2026-05-06 10:34 | -26.13823 | 28.24506 | 5544 ft | 16 kts | 316° |
| 2026-05-06 10:34 | -26.13743 | 28.24418 | 5548 ft | 16 kts | 316° |
| 2026-05-06 10:34 | -26.13662 | 28.24331 | 5549 ft | 16 kts | 316° |
| 2026-05-06 10:35 | -26.13582 | 28.24243 | 5549 ft | 16 kts | 315° |
| 2026-05-06 10:35 | -26.13501 | 28.24156 | 5548 ft | 16 kts | 316° |
| 2026-05-06 10:35 | -26.13421 | 28.24068 | 5557 ft | 16 kts | 315° |
| 2026-05-06 10:35 | -26.13340 | 28.23981 | 5556 ft | 16 kts | 315° |
| 2026-05-06 10:36 | -26.13260 | 28.23893 | 5555 ft | 16 kts | 315° |
| 2026-05-06 10:36 | -26.13183 | 28.23813 | 5554 ft | 13 kts | 316° |
| 2026-05-06 10:36 | -26.13143 | 28.23749 | 5552 ft | 10 kts | 284° |
| 2026-05-06 10:36 | -26.13134 | 28.23675 | 5549 ft | 10 kts | 276° |
| 2026-05-06 10:37 | -26.13126 | 28.23601 | 5551 ft | 10 kts | 276° |
| 2026-05-06 10:37 | -26.13119 | 28.23527 | 5555 ft | 10 kts | 276° |
| 2026-05-06 10:37 | -26.13111 | 28.23461 | 5552 ft | 8 kts | 288° |
| 2026-05-06 10:37 | -26.13076 | 28.23415 | 5554 ft | 8 kts | 321° |
| 2026-05-06 10:38 | -26.13036 | 28.23381 | 5554 ft | 4 kts | 322° |
| 2026-05-06 10:38 | -26.13019 | 28.23366 | 5555 ft | 2 kts | 322° |
| 2026-05-06 10:38 | -26.13016 | 28.23364 | 5555 ft | 0 kts | 322° |